<?xml version="1.0" encoding="UTF-8" standalone="no" ?>
<gpx xmlns="http://www.topografix.com/GPX/1/1" xmlns:xsi="http://www.w3.org/2001/XMLSchema-instance" xsi:schemaLocation="http://www.topografix.com/GPX/1/1 http://www.topografix.com/GPX/1/1/gpx.xsd" version="1.1" creator="VisuGPX - https://www.visugpx.com">
  <metadata>
    <name>Castelculier 13.6 km</name>
  </metadata>
  <trk>
    <name><![CDATA[Castelculier 13.2 km]]></name>
    <extensions>
      <line xmlns="http://www.topografix.com/GPX/gpx_style/0/2">
        <color>002aff</color>
        <width>4</width>
      </line>
    </extensions>
    <trkseg>
      <trkpt lat="44.17666" lon="0.69396">
        <ele>57</ele>
        <time>2024-09-10T16:55:46+02:00</time>
      </trkpt>
      <trkpt lat="44.17678" lon="0.69418">
        <ele>57.4</ele>
        <time>2024-09-10T16:55:06+02:00</time>
      </trkpt>
      <trkpt lat="44.17684" lon="0.69432">
        <ele>57.3</ele>
        <time>2024-09-10T16:54:57+02:00</time>
      </trkpt>
      <trkpt lat="44.17691" lon="0.69442">
        <ele>57.1</ele>
        <time>2024-09-10T16:54:47+02:00</time>
      </trkpt>
      <trkpt lat="44.17698" lon="0.69455">
        <ele>57</ele>
        <time>2024-09-10T16:54:38+02:00</time>
      </trkpt>
      <trkpt lat="44.17707" lon="0.69465">
        <ele>57</ele>
        <time>2024-09-10T16:54:28+02:00</time>
      </trkpt>
      <trkpt lat="44.17722" lon="0.69466">
        <ele>57</ele>
        <time>2024-09-10T16:54:14+02:00</time>
      </trkpt>
      <trkpt lat="44.17731" lon="0.6947">
        <ele>57</ele>
        <time>2024-09-10T16:54:05+02:00</time>
      </trkpt>
      <trkpt lat="44.17758" lon="0.6951">
        <ele>56.9</ele>
        <time>2024-09-10T16:53:31+02:00</time>
      </trkpt>
      <trkpt lat="44.17768" lon="0.69523">
        <ele>56.5</ele>
        <time>2024-09-10T16:53:22+02:00</time>
      </trkpt>
      <trkpt lat="44.17776" lon="0.69533">
        <ele>56</ele>
        <time>2024-09-10T16:53:12+02:00</time>
      </trkpt>
      <trkpt lat="44.17786" lon="0.69543">
        <ele>56</ele>
        <time>2024-09-10T16:53:03+02:00</time>
      </trkpt>
      <trkpt lat="44.17797" lon="0.69551">
        <ele>56</ele>
        <time>2024-09-10T16:52:53+02:00</time>
      </trkpt>
      <trkpt lat="44.17807" lon="0.69556">
        <ele>56</ele>
        <time>2024-09-10T16:52:44+02:00</time>
      </trkpt>
      <trkpt lat="44.17818" lon="0.69561">
        <ele>56.1</ele>
        <time>2024-09-10T16:52:34+02:00</time>
      </trkpt>
      <trkpt lat="44.17831" lon="0.69564">
        <ele>56.3</ele>
        <time>2024-09-10T16:52:24+02:00</time>
      </trkpt>
      <trkpt lat="44.17844" lon="0.69569">
        <ele>56.5</ele>
        <time>2024-09-10T16:52:15+02:00</time>
      </trkpt>
      <trkpt lat="44.17858" lon="0.69575">
        <ele>56.3</ele>
        <time>2024-09-10T16:52:05+02:00</time>
      </trkpt>
      <trkpt lat="44.17867" lon="0.69586">
        <ele>56.1</ele>
        <time>2024-09-10T16:51:56+02:00</time>
      </trkpt>
      <trkpt lat="44.17878" lon="0.69589">
        <ele>56.2</ele>
        <time>2024-09-10T16:51:46+02:00</time>
      </trkpt>
      <trkpt lat="44.17889" lon="0.69592">
        <ele>56.3</ele>
        <time>2024-09-10T16:51:37+02:00</time>
      </trkpt>
      <trkpt lat="44.17901" lon="0.69596">
        <ele>56.7</ele>
        <time>2024-09-10T16:51:27+02:00</time>
      </trkpt>
      <trkpt lat="44.17914" lon="0.69593">
        <ele>56.9</ele>
        <time>2024-09-10T16:51:17+02:00</time>
      </trkpt>
      <trkpt lat="44.17926" lon="0.69598">
        <ele>57</ele>
        <time>2024-09-10T16:51:08+02:00</time>
      </trkpt>
      <trkpt lat="44.17938" lon="0.696">
        <ele>57</ele>
        <time>2024-09-10T16:50:59+02:00</time>
      </trkpt>
      <trkpt lat="44.1795" lon="0.69601">
        <ele>57</ele>
        <time>2024-09-10T16:50:50+02:00</time>
      </trkpt>
      <trkpt lat="44.17962" lon="0.69607">
        <ele>57</ele>
        <time>2024-09-10T16:50:40+02:00</time>
      </trkpt>
      <trkpt lat="44.17971" lon="0.6961">
        <ele>57</ele>
        <time>2024-09-10T16:49:17+02:00</time>
      </trkpt>
      <trkpt lat="44.17981" lon="0.69618">
        <ele>57</ele>
        <time>2024-09-10T16:49:07+02:00</time>
      </trkpt>
      <trkpt lat="44.17995" lon="0.69624">
        <ele>57</ele>
        <time>2024-09-10T16:48:58+02:00</time>
      </trkpt>
      <trkpt lat="44.18007" lon="0.69633">
        <ele>57</ele>
        <time>2024-09-10T16:48:48+02:00</time>
      </trkpt>
      <trkpt lat="44.18016" lon="0.69642">
        <ele>57</ele>
        <time>2024-09-10T16:48:39+02:00</time>
      </trkpt>
      <trkpt lat="44.18028" lon="0.6965">
        <ele>57</ele>
        <time>2024-09-10T16:48:30+02:00</time>
      </trkpt>
      <trkpt lat="44.1804" lon="0.69658">
        <ele>57.4</ele>
        <time>2024-09-10T16:48:20+02:00</time>
      </trkpt>
      <trkpt lat="44.18051" lon="0.6967">
        <ele>57.9</ele>
        <time>2024-09-10T16:48:10+02:00</time>
      </trkpt>
      <trkpt lat="44.18062" lon="0.69679">
        <ele>58</ele>
        <time>2024-09-10T16:48:01+02:00</time>
      </trkpt>
      <trkpt lat="44.18071" lon="0.69692">
        <ele>58</ele>
        <time>2024-09-10T16:47:51+02:00</time>
      </trkpt>
      <trkpt lat="44.18081" lon="0.69706">
        <ele>58</ele>
        <time>2024-09-10T16:47:41+02:00</time>
      </trkpt>
      <trkpt lat="44.18093" lon="0.69717">
        <ele>58</ele>
        <time>2024-09-10T16:47:32+02:00</time>
      </trkpt>
      <trkpt lat="44.18102" lon="0.69731">
        <ele>58</ele>
        <time>2024-09-10T16:47:22+02:00</time>
      </trkpt>
      <trkpt lat="44.18113" lon="0.69741">
        <ele>58</ele>
        <time>2024-09-10T16:47:13+02:00</time>
      </trkpt>
      <trkpt lat="44.18124" lon="0.6975">
        <ele>58</ele>
        <time>2024-09-10T16:47:03+02:00</time>
      </trkpt>
      <trkpt lat="44.18133" lon="0.69761">
        <ele>58</ele>
        <time>2024-09-10T16:46:54+02:00</time>
      </trkpt>
      <trkpt lat="44.18142" lon="0.69775">
        <ele>58</ele>
        <time>2024-09-10T16:46:43+02:00</time>
      </trkpt>
      <trkpt lat="44.18155" lon="0.6979">
        <ele>58.4</ele>
        <time>2024-09-10T16:46:34+02:00</time>
      </trkpt>
      <trkpt lat="44.18165" lon="0.69794">
        <ele>58.6</ele>
        <time>2024-09-10T16:46:25+02:00</time>
      </trkpt>
      <trkpt lat="44.18172" lon="0.69803">
        <ele>58.9</ele>
        <time>2024-09-10T16:46:20+02:00</time>
      </trkpt>
      <trkpt lat="44.1818" lon="0.69812">
        <ele>59</ele>
        <time>2024-09-10T16:46:10+02:00</time>
      </trkpt>
      <trkpt lat="44.18193" lon="0.69823">
        <ele>59</ele>
        <time>2024-09-10T16:46:00+02:00</time>
      </trkpt>
      <trkpt lat="44.18205" lon="0.69826">
        <ele>59.3</ele>
        <time>2024-09-10T16:45:50+02:00</time>
      </trkpt>
      <trkpt lat="44.18218" lon="0.69827">
        <ele>59.7</ele>
        <time>2024-09-10T16:45:41+02:00</time>
      </trkpt>
      <trkpt lat="44.18233" lon="0.69831">
        <ele>60</ele>
        <time>2024-09-10T16:45:31+02:00</time>
      </trkpt>
      <trkpt lat="44.18246" lon="0.69834">
        <ele>60</ele>
        <time>2024-09-10T16:45:22+02:00</time>
      </trkpt>
      <trkpt lat="44.1826" lon="0.69837">
        <ele>60.4</ele>
        <time>2024-09-10T16:45:12+02:00</time>
      </trkpt>
      <trkpt lat="44.18272" lon="0.69838">
        <ele>60.8</ele>
        <time>2024-09-10T16:45:03+02:00</time>
      </trkpt>
      <trkpt lat="44.18287" lon="0.69844">
        <ele>61.2</ele>
        <time>2024-09-10T16:44:53+02:00</time>
      </trkpt>
      <trkpt lat="44.183" lon="0.69847">
        <ele>61.4</ele>
        <time>2024-09-10T16:44:44+02:00</time>
      </trkpt>
      <trkpt lat="44.18313" lon="0.69852">
        <ele>61.3</ele>
        <time>2024-09-10T16:44:35+02:00</time>
      </trkpt>
      <trkpt lat="44.18325" lon="0.69854">
        <ele>61.3</ele>
        <time>2024-09-10T16:44:25+02:00</time>
      </trkpt>
      <trkpt lat="44.18338" lon="0.69855">
        <ele>61.3</ele>
        <time>2024-09-10T16:44:16+02:00</time>
      </trkpt>
      <trkpt lat="44.18352" lon="0.69857">
        <ele>61.7</ele>
        <time>2024-09-10T16:44:06+02:00</time>
      </trkpt>
      <trkpt lat="44.18364" lon="0.69858">
        <ele>62</ele>
        <time>2024-09-10T16:43:57+02:00</time>
      </trkpt>
      <trkpt lat="44.18376" lon="0.69863">
        <ele>62</ele>
        <time>2024-09-10T16:43:48+02:00</time>
      </trkpt>
      <trkpt lat="44.1839" lon="0.69864">
        <ele>62</ele>
        <time>2024-09-10T16:43:38+02:00</time>
      </trkpt>
      <trkpt lat="44.18404" lon="0.69872">
        <ele>62</ele>
        <time>2024-09-10T16:43:28+02:00</time>
      </trkpt>
      <trkpt lat="44.18417" lon="0.69873">
        <ele>62</ele>
        <time>2024-09-10T16:43:18+02:00</time>
      </trkpt>
      <trkpt lat="44.1843" lon="0.69874">
        <ele>62.2</ele>
        <time>2024-09-10T16:43:09+02:00</time>
      </trkpt>
      <trkpt lat="44.18441" lon="0.69879">
        <ele>62.6</ele>
        <time>2024-09-10T16:43:00+02:00</time>
      </trkpt>
      <trkpt lat="44.18452" lon="0.69886">
        <ele>62.9</ele>
        <time>2024-09-10T16:42:50+02:00</time>
      </trkpt>
      <trkpt lat="44.18465" lon="0.69885">
        <ele>63</ele>
        <time>2024-09-10T16:42:20+02:00</time>
      </trkpt>
      <trkpt lat="44.18473" lon="0.6989">
        <ele>63</ele>
        <time>2024-09-10T16:42:10+02:00</time>
      </trkpt>
      <trkpt lat="44.18483" lon="0.69887">
        <ele>63</ele>
        <time>2024-09-10T16:42:00+02:00</time>
      </trkpt>
      <trkpt lat="44.18493" lon="0.69894">
        <ele>63</ele>
        <time>2024-09-10T16:41:51+02:00</time>
      </trkpt>
      <trkpt lat="44.18505" lon="0.69898">
        <ele>63</ele>
        <time>2024-09-10T16:41:40+02:00</time>
      </trkpt>
      <trkpt lat="44.18517" lon="0.699">
        <ele>63</ele>
        <time>2024-09-10T16:41:31+02:00</time>
      </trkpt>
      <trkpt lat="44.18528" lon="0.69903">
        <ele>63</ele>
        <time>2024-09-10T16:41:21+02:00</time>
      </trkpt>
      <trkpt lat="44.1854" lon="0.69906">
        <ele>63.3</ele>
        <time>2024-09-10T16:41:11+02:00</time>
      </trkpt>
      <trkpt lat="44.18554" lon="0.69905">
        <ele>63.5</ele>
        <time>2024-09-10T16:41:02+02:00</time>
      </trkpt>
      <trkpt lat="44.18565" lon="0.69907">
        <ele>64.1</ele>
        <time>2024-09-10T16:40:52+02:00</time>
      </trkpt>
      <trkpt lat="44.18579" lon="0.69911">
        <ele>64.8</ele>
        <time>2024-09-10T16:40:42+02:00</time>
      </trkpt>
      <trkpt lat="44.1859" lon="0.69914">
        <ele>65.2</ele>
        <time>2024-09-10T16:40:33+02:00</time>
      </trkpt>
      <trkpt lat="44.18602" lon="0.69917">
        <ele>65.7</ele>
        <time>2024-09-10T16:40:23+02:00</time>
      </trkpt>
      <trkpt lat="44.18614" lon="0.69921">
        <ele>66.2</ele>
        <time>2024-09-10T16:40:14+02:00</time>
      </trkpt>
      <trkpt lat="44.18626" lon="0.69926">
        <ele>67.3</ele>
        <time>2024-09-10T16:40:05+02:00</time>
      </trkpt>
      <trkpt lat="44.18639" lon="0.6993">
        <ele>68.4</ele>
        <time>2024-09-10T16:39:55+02:00</time>
      </trkpt>
      <trkpt lat="44.18651" lon="0.69933">
        <ele>69.9</ele>
        <time>2024-09-10T16:39:46+02:00</time>
      </trkpt>
      <trkpt lat="44.18663" lon="0.6993">
        <ele>71.1</ele>
        <time>2024-09-10T16:39:37+02:00</time>
      </trkpt>
      <trkpt lat="44.18673" lon="0.69917">
        <ele>72</ele>
        <time>2024-09-10T16:39:27+02:00</time>
      </trkpt>
      <trkpt lat="44.1868" lon="0.69905">
        <ele>72.4</ele>
        <time>2024-09-10T16:39:18+02:00</time>
      </trkpt>
      <trkpt lat="44.18688" lon="0.69892">
        <ele>73.6</ele>
        <time>2024-09-10T16:39:08+02:00</time>
      </trkpt>
      <trkpt lat="44.18692" lon="0.69876">
        <ele>74</ele>
        <time>2024-09-10T16:38:58+02:00</time>
      </trkpt>
      <trkpt lat="44.18695" lon="0.69862">
        <ele>74.2</ele>
        <time>2024-09-10T16:38:49+02:00</time>
      </trkpt>
      <trkpt lat="44.18702" lon="0.69845">
        <ele>74.1</ele>
        <time>2024-09-10T16:38:31+02:00</time>
      </trkpt>
      <trkpt lat="44.18706" lon="0.69828">
        <ele>74.2</ele>
        <time>2024-09-10T16:38:20+02:00</time>
      </trkpt>
      <trkpt lat="44.18709" lon="0.69812">
        <ele>74.1</ele>
        <time>2024-09-10T16:38:10+02:00</time>
      </trkpt>
      <trkpt lat="44.18712" lon="0.69797">
        <ele>74.1</ele>
        <time>2024-09-10T16:38:01+02:00</time>
      </trkpt>
      <trkpt lat="44.1872" lon="0.69782">
        <ele>75.6</ele>
        <time>2024-09-10T16:37:51+02:00</time>
      </trkpt>
      <trkpt lat="44.18724" lon="0.6977">
        <ele>75.3</ele>
        <time>2024-09-10T16:37:42+02:00</time>
      </trkpt>
      <trkpt lat="44.1873" lon="0.69752">
        <ele>74.3</ele>
        <time>2024-09-10T16:37:32+02:00</time>
      </trkpt>
      <trkpt lat="44.18738" lon="0.69739">
        <ele>74.5</ele>
        <time>2024-09-10T16:37:23+02:00</time>
      </trkpt>
      <trkpt lat="44.18745" lon="0.69723">
        <ele>75</ele>
        <time>2024-09-10T16:37:12+02:00</time>
      </trkpt>
      <trkpt lat="44.18751" lon="0.6971">
        <ele>74.8</ele>
        <time>2024-09-10T16:37:03+02:00</time>
      </trkpt>
      <trkpt lat="44.18755" lon="0.69695">
        <ele>73.6</ele>
        <time>2024-09-10T16:36:54+02:00</time>
      </trkpt>
      <trkpt lat="44.18758" lon="0.69675">
        <ele>72.6</ele>
        <time>2024-09-10T16:36:44+02:00</time>
      </trkpt>
      <trkpt lat="44.18763" lon="0.6966">
        <ele>72.5</ele>
        <time>2024-09-10T16:36:34+02:00</time>
      </trkpt>
      <trkpt lat="44.18769" lon="0.69644">
        <ele>72.6</ele>
        <time>2024-09-10T16:36:25+02:00</time>
      </trkpt>
      <trkpt lat="44.18773" lon="0.6963">
        <ele>72.8</ele>
        <time>2024-09-10T16:36:15+02:00</time>
      </trkpt>
      <trkpt lat="44.18774" lon="0.69613">
        <ele>72.2</ele>
        <time>2024-09-10T16:36:06+02:00</time>
      </trkpt>
      <trkpt lat="44.18779" lon="0.69598">
        <ele>72.1</ele>
        <time>2024-09-10T16:35:57+02:00</time>
      </trkpt>
      <trkpt lat="44.18784" lon="0.69578">
        <ele>71.3</ele>
        <time>2024-09-10T16:35:46+02:00</time>
      </trkpt>
      <trkpt lat="44.18789" lon="0.69562">
        <ele>71</ele>
        <time>2024-09-10T16:35:36+02:00</time>
      </trkpt>
      <trkpt lat="44.18793" lon="0.69545">
        <ele>70.7</ele>
        <time>2024-09-10T16:35:26+02:00</time>
      </trkpt>
      <trkpt lat="44.18797" lon="0.69527">
        <ele>70.4</ele>
        <time>2024-09-10T16:35:16+02:00</time>
      </trkpt>
      <trkpt lat="44.18802" lon="0.69512">
        <ele>70.8</ele>
        <time>2024-09-10T16:35:07+02:00</time>
      </trkpt>
      <trkpt lat="44.18807" lon="0.69495">
        <ele>70.7</ele>
        <time>2024-09-10T16:34:56+02:00</time>
      </trkpt>
      <trkpt lat="44.18812" lon="0.69477">
        <ele>70</ele>
        <time>2024-09-10T16:34:46+02:00</time>
      </trkpt>
      <trkpt lat="44.18816" lon="0.69461">
        <ele>69.5</ele>
        <time>2024-09-10T16:34:36+02:00</time>
      </trkpt>
      <trkpt lat="44.18823" lon="0.69446">
        <ele>69.5</ele>
        <time>2024-09-10T16:34:26+02:00</time>
      </trkpt>
      <trkpt lat="44.18831" lon="0.69429">
        <ele>70.1</ele>
        <time>2024-09-10T16:34:17+02:00</time>
      </trkpt>
      <trkpt lat="44.18841" lon="0.69418">
        <ele>70.6</ele>
        <time>2024-09-10T16:34:07+02:00</time>
      </trkpt>
      <trkpt lat="44.18852" lon="0.69408">
        <ele>70.8</ele>
        <time>2024-09-10T16:33:58+02:00</time>
      </trkpt>
      <trkpt lat="44.18863" lon="0.69401">
        <ele>71.6</ele>
        <time>2024-09-10T16:33:48+02:00</time>
      </trkpt>
      <trkpt lat="44.18872" lon="0.69386">
        <ele>72</ele>
        <time>2024-09-10T16:33:39+02:00</time>
      </trkpt>
      <trkpt lat="44.18885" lon="0.69374">
        <ele>72.9</ele>
        <time>2024-09-10T16:33:29+02:00</time>
      </trkpt>
      <trkpt lat="44.18893" lon="0.69358">
        <ele>73.2</ele>
        <time>2024-09-10T16:33:19+02:00</time>
      </trkpt>
      <trkpt lat="44.18899" lon="0.69342">
        <ele>73</ele>
        <time>2024-09-10T16:33:09+02:00</time>
      </trkpt>
      <trkpt lat="44.18906" lon="0.69331">
        <ele>73.3</ele>
        <time>2024-09-10T16:32:59+02:00</time>
      </trkpt>
      <trkpt lat="44.18913" lon="0.69318">
        <ele>73.8</ele>
        <time>2024-09-10T16:32:49+02:00</time>
      </trkpt>
      <trkpt lat="44.18922" lon="0.69303">
        <ele>74.4</ele>
        <time>2024-09-10T16:32:39+02:00</time>
      </trkpt>
      <trkpt lat="44.18929" lon="0.69286">
        <ele>74.2</ele>
        <time>2024-09-10T16:32:29+02:00</time>
      </trkpt>
      <trkpt lat="44.18937" lon="0.69269">
        <ele>74</ele>
        <time>2024-09-10T16:32:19+02:00</time>
      </trkpt>
      <trkpt lat="44.18941" lon="0.69254">
        <ele>73.1</ele>
        <time>2024-09-10T16:32:09+02:00</time>
      </trkpt>
      <trkpt lat="44.18949" lon="0.69241">
        <ele>72.8</ele>
        <time>2024-09-10T16:32:00+02:00</time>
      </trkpt>
      <trkpt lat="44.18957" lon="0.69228">
        <ele>72.8</ele>
        <time>2024-09-10T16:31:50+02:00</time>
      </trkpt>
      <trkpt lat="44.18965" lon="0.69215">
        <ele>72.2</ele>
        <time>2024-09-10T16:31:40+02:00</time>
      </trkpt>
      <trkpt lat="44.18977" lon="0.692">
        <ele>71.4</ele>
        <time>2024-09-10T16:31:30+02:00</time>
      </trkpt>
      <trkpt lat="44.18984" lon="0.69185">
        <ele>71</ele>
        <time>2024-09-10T16:31:21+02:00</time>
      </trkpt>
      <trkpt lat="44.18993" lon="0.69171">
        <ele>71.3</ele>
        <time>2024-09-10T16:31:12+02:00</time>
      </trkpt>
      <trkpt lat="44.19001" lon="0.69158">
        <ele>70.7</ele>
        <time>2024-09-10T16:31:02+02:00</time>
      </trkpt>
      <trkpt lat="44.19005" lon="0.69143">
        <ele>68.6</ele>
        <time>2024-09-10T16:30:52+02:00</time>
      </trkpt>
      <trkpt lat="44.19012" lon="0.69127">
        <ele>67.3</ele>
        <time>2024-09-10T16:30:42+02:00</time>
      </trkpt>
      <trkpt lat="44.19017" lon="0.69114">
        <ele>66.8</ele>
        <time>2024-09-10T16:30:32+02:00</time>
      </trkpt>
      <trkpt lat="44.19025" lon="0.69098">
        <ele>66.4</ele>
        <time>2024-09-10T16:30:23+02:00</time>
      </trkpt>
      <trkpt lat="44.19035" lon="0.69088">
        <ele>66.2</ele>
        <time>2024-09-10T16:30:13+02:00</time>
      </trkpt>
      <trkpt lat="44.19045" lon="0.6908">
        <ele>66</ele>
        <time>2024-09-10T16:30:04+02:00</time>
      </trkpt>
      <trkpt lat="44.19057" lon="0.69067">
        <ele>66</ele>
        <time>2024-09-10T16:29:54+02:00</time>
      </trkpt>
      <trkpt lat="44.19069" lon="0.6906">
        <ele>66</ele>
        <time>2024-09-10T16:29:44+02:00</time>
      </trkpt>
      <trkpt lat="44.19082" lon="0.69049">
        <ele>65.8</ele>
        <time>2024-09-10T16:29:35+02:00</time>
      </trkpt>
      <trkpt lat="44.19092" lon="0.69042">
        <ele>65.5</ele>
        <time>2024-09-10T16:29:25+02:00</time>
      </trkpt>
      <trkpt lat="44.19104" lon="0.69037">
        <ele>65.6</ele>
        <time>2024-09-10T16:29:15+02:00</time>
      </trkpt>
      <trkpt lat="44.19116" lon="0.69025">
        <ele>65.9</ele>
        <time>2024-09-10T16:29:05+02:00</time>
      </trkpt>
      <trkpt lat="44.19128" lon="0.69015">
        <ele>65.8</ele>
        <time>2024-09-10T16:28:55+02:00</time>
      </trkpt>
      <trkpt lat="44.19139" lon="0.69004">
        <ele>66</ele>
        <time>2024-09-10T16:28:45+02:00</time>
      </trkpt>
      <trkpt lat="44.19146" lon="0.68991">
        <ele>66</ele>
        <time>2024-09-10T16:28:36+02:00</time>
      </trkpt>
      <trkpt lat="44.19153" lon="0.68979">
        <ele>66</ele>
        <time>2024-09-10T16:28:26+02:00</time>
      </trkpt>
      <trkpt lat="44.19159" lon="0.68965">
        <ele>65.9</ele>
        <time>2024-09-10T16:28:16+02:00</time>
      </trkpt>
      <trkpt lat="44.19169" lon="0.6895">
        <ele>66</ele>
        <time>2024-09-10T16:28:06+02:00</time>
      </trkpt>
      <trkpt lat="44.19176" lon="0.68932">
        <ele>66</ele>
        <time>2024-09-10T16:27:56+02:00</time>
      </trkpt>
      <trkpt lat="44.19181" lon="0.68916">
        <ele>66</ele>
        <time>2024-09-10T16:27:46+02:00</time>
      </trkpt>
      <trkpt lat="44.19189" lon="0.68905">
        <ele>66</ele>
        <time>2024-09-10T16:27:37+02:00</time>
      </trkpt>
      <trkpt lat="44.19195" lon="0.6889">
        <ele>66</ele>
        <time>2024-09-10T16:27:28+02:00</time>
      </trkpt>
      <trkpt lat="44.192" lon="0.68875">
        <ele>66.2</ele>
        <time>2024-09-10T16:27:17+02:00</time>
      </trkpt>
      <trkpt lat="44.19208" lon="0.68861">
        <ele>66.5</ele>
        <time>2024-09-10T16:27:08+02:00</time>
      </trkpt>
      <trkpt lat="44.19215" lon="0.68838">
        <ele>68.2</ele>
        <time>2024-09-10T16:26:53+02:00</time>
      </trkpt>
      <trkpt lat="44.19221" lon="0.68826">
        <ele>69.1</ele>
        <time>2024-09-10T16:26:43+02:00</time>
      </trkpt>
      <trkpt lat="44.19227" lon="0.68814">
        <ele>70.3</ele>
        <time>2024-09-10T16:26:34+02:00</time>
      </trkpt>
      <trkpt lat="44.19238" lon="0.68805">
        <ele>72.4</ele>
        <time>2024-09-10T16:26:23+02:00</time>
      </trkpt>
      <trkpt lat="44.19242" lon="0.68789">
        <ele>74.6</ele>
        <time>2024-09-10T16:26:14+02:00</time>
      </trkpt>
      <trkpt lat="44.19246" lon="0.68774">
        <ele>76.9</ele>
        <time>2024-09-10T16:26:04+02:00</time>
      </trkpt>
      <trkpt lat="44.19256" lon="0.68762">
        <ele>79.4</ele>
        <time>2024-09-10T16:25:51+02:00</time>
      </trkpt>
      <trkpt lat="44.19261" lon="0.68748">
        <ele>81.5</ele>
        <time>2024-09-10T16:25:40+02:00</time>
      </trkpt>
      <trkpt lat="44.19263" lon="0.68733">
        <ele>84.2</ele>
        <time>2024-09-10T16:25:31+02:00</time>
      </trkpt>
      <trkpt lat="44.19267" lon="0.68721">
        <ele>86.7</ele>
        <time>2024-09-10T16:25:21+02:00</time>
      </trkpt>
      <trkpt lat="44.19272" lon="0.68708">
        <ele>89.3</ele>
        <time>2024-09-10T16:25:11+02:00</time>
      </trkpt>
      <trkpt lat="44.19277" lon="0.68694">
        <ele>91.9</ele>
        <time>2024-09-10T16:25:02+02:00</time>
      </trkpt>
      <trkpt lat="44.19284" lon="0.68686">
        <ele>94.2</ele>
        <time>2024-09-10T16:24:53+02:00</time>
      </trkpt>
      <trkpt lat="44.19294" lon="0.68678">
        <ele>96.3</ele>
        <time>2024-09-10T16:24:43+02:00</time>
      </trkpt>
      <trkpt lat="44.19301" lon="0.68665">
        <ele>97.9</ele>
        <time>2024-09-10T16:24:29+02:00</time>
      </trkpt>
      <trkpt lat="44.19305" lon="0.68652">
        <ele>100.1</ele>
        <time>2024-09-10T16:24:20+02:00</time>
      </trkpt>
      <trkpt lat="44.19309" lon="0.6864">
        <ele>102.2</ele>
        <time>2024-09-10T16:24:11+02:00</time>
      </trkpt>
      <trkpt lat="44.19318" lon="0.68632">
        <ele>103.6</ele>
        <time>2024-09-10T16:24:01+02:00</time>
      </trkpt>
      <trkpt lat="44.19326" lon="0.6862">
        <ele>104.8</ele>
        <time>2024-09-10T16:23:52+02:00</time>
      </trkpt>
      <trkpt lat="44.19333" lon="0.68609">
        <ele>106</ele>
        <time>2024-09-10T16:23:42+02:00</time>
      </trkpt>
      <trkpt lat="44.19342" lon="0.68597">
        <ele>106.2</ele>
        <time>2024-09-10T16:23:32+02:00</time>
      </trkpt>
      <trkpt lat="44.1935" lon="0.68583">
        <ele>106.6</ele>
        <time>2024-09-10T16:23:23+02:00</time>
      </trkpt>
      <trkpt lat="44.19357" lon="0.68573">
        <ele>107.1</ele>
        <time>2024-09-10T16:23:13+02:00</time>
      </trkpt>
      <trkpt lat="44.19368" lon="0.68561">
        <ele>108</ele>
        <time>2024-09-10T16:23:03+02:00</time>
      </trkpt>
      <trkpt lat="44.19377" lon="0.68548">
        <ele>108.6</ele>
        <time>2024-09-10T16:22:53+02:00</time>
      </trkpt>
      <trkpt lat="44.19387" lon="0.68537">
        <ele>109.5</ele>
        <time>2024-09-10T16:22:43+02:00</time>
      </trkpt>
      <trkpt lat="44.19397" lon="0.68529">
        <ele>110.2</ele>
        <time>2024-09-10T16:22:34+02:00</time>
      </trkpt>
      <trkpt lat="44.19408" lon="0.68519">
        <ele>110.5</ele>
        <time>2024-09-10T16:22:25+02:00</time>
      </trkpt>
      <trkpt lat="44.19419" lon="0.6851">
        <ele>111.1</ele>
        <time>2024-09-10T16:22:15+02:00</time>
      </trkpt>
      <trkpt lat="44.19429" lon="0.68501">
        <ele>111.9</ele>
        <time>2024-09-10T16:22:06+02:00</time>
      </trkpt>
      <trkpt lat="44.19438" lon="0.68495">
        <ele>112.3</ele>
        <time>2024-09-10T16:21:56+02:00</time>
      </trkpt>
      <trkpt lat="44.19448" lon="0.68488">
        <ele>112.9</ele>
        <time>2024-09-10T16:21:47+02:00</time>
      </trkpt>
      <trkpt lat="44.1946" lon="0.68478">
        <ele>114.1</ele>
        <time>2024-09-10T16:21:37+02:00</time>
      </trkpt>
      <trkpt lat="44.19471" lon="0.68468">
        <ele>115.5</ele>
        <time>2024-09-10T16:21:26+02:00</time>
      </trkpt>
      <trkpt lat="44.19479" lon="0.6846">
        <ele>115.8</ele>
        <time>2024-09-10T16:21:17+02:00</time>
      </trkpt>
      <trkpt lat="44.19491" lon="0.68451">
        <ele>117.2</ele>
        <time>2024-09-10T16:21:08+02:00</time>
      </trkpt>
      <trkpt lat="44.19503" lon="0.68442">
        <ele>119.3</ele>
        <time>2024-09-10T16:20:58+02:00</time>
      </trkpt>
      <trkpt lat="44.19512" lon="0.68432">
        <ele>120.2</ele>
        <time>2024-09-10T16:20:48+02:00</time>
      </trkpt>
      <trkpt lat="44.19523" lon="0.68419">
        <ele>122.2</ele>
        <time>2024-09-10T16:20:34+02:00</time>
      </trkpt>
      <trkpt lat="44.19531" lon="0.68412">
        <ele>123.7</ele>
        <time>2024-09-10T16:20:25+02:00</time>
      </trkpt>
      <trkpt lat="44.19543" lon="0.68403">
        <ele>125.9</ele>
        <time>2024-09-10T16:20:15+02:00</time>
      </trkpt>
      <trkpt lat="44.19555" lon="0.68393">
        <ele>128.5</ele>
        <time>2024-09-10T16:20:01+02:00</time>
      </trkpt>
      <trkpt lat="44.1956" lon="0.68382">
        <ele>129.7</ele>
        <time>2024-09-10T16:19:52+02:00</time>
      </trkpt>
      <trkpt lat="44.19569" lon="0.6837">
        <ele>131.4</ele>
        <time>2024-09-10T16:19:43+02:00</time>
      </trkpt>
      <trkpt lat="44.19577" lon="0.68362">
        <ele>133.3</ele>
        <time>2024-09-10T16:19:34+02:00</time>
      </trkpt>
      <trkpt lat="44.19591" lon="0.68353">
        <ele>135.5</ele>
        <time>2024-09-10T16:19:20+02:00</time>
      </trkpt>
      <trkpt lat="44.196" lon="0.68345">
        <ele>137.3</ele>
        <time>2024-09-10T16:19:05+02:00</time>
      </trkpt>
      <trkpt lat="44.1961" lon="0.68335">
        <ele>140.6</ele>
        <time>2024-09-10T16:18:51+02:00</time>
      </trkpt>
      <trkpt lat="44.19622" lon="0.68328">
        <ele>140.9</ele>
        <time>2024-09-10T16:18:37+02:00</time>
      </trkpt>
      <trkpt lat="44.19633" lon="0.68319">
        <ele>142</ele>
        <time>2024-09-10T16:18:23+02:00</time>
      </trkpt>
      <trkpt lat="44.19642" lon="0.68312">
        <ele>143.2</ele>
        <time>2024-09-10T16:18:13+02:00</time>
      </trkpt>
      <trkpt lat="44.19653" lon="0.68308">
        <ele>143.8</ele>
        <time>2024-09-10T16:17:58+02:00</time>
      </trkpt>
      <trkpt lat="44.19665" lon="0.68301">
        <ele>144.6</ele>
        <time>2024-09-10T16:17:43+02:00</time>
      </trkpt>
      <trkpt lat="44.19676" lon="0.6829">
        <ele>145.7</ele>
        <time>2024-09-10T16:17:29+02:00</time>
      </trkpt>
      <trkpt lat="44.19686" lon="0.68285">
        <ele>146.3</ele>
        <time>2024-09-10T16:17:20+02:00</time>
      </trkpt>
      <trkpt lat="44.19695" lon="0.68293">
        <ele>145.4</ele>
        <time>2024-09-10T16:17:10+02:00</time>
      </trkpt>
      <trkpt lat="44.19708" lon="0.68298">
        <ele>145.3</ele>
        <time>2024-09-10T16:17:00+02:00</time>
      </trkpt>
      <trkpt lat="44.19719" lon="0.68301">
        <ele>145.4</ele>
        <time>2024-09-10T16:16:50+02:00</time>
      </trkpt>
      <trkpt lat="44.1973" lon="0.68302">
        <ele>145.6</ele>
        <time>2024-09-10T16:16:41+02:00</time>
      </trkpt>
      <trkpt lat="44.19743" lon="0.683">
        <ele>146.2</ele>
        <time>2024-09-10T16:16:31+02:00</time>
      </trkpt>
      <trkpt lat="44.19753" lon="0.68302">
        <ele>146.4</ele>
        <time>2024-09-10T16:16:21+02:00</time>
      </trkpt>
      <trkpt lat="44.19767" lon="0.68307">
        <ele>146.3</ele>
        <time>2024-09-10T16:16:11+02:00</time>
      </trkpt>
      <trkpt lat="44.19777" lon="0.68307">
        <ele>146.7</ele>
        <time>2024-09-10T16:16:02+02:00</time>
      </trkpt>
      <trkpt lat="44.19787" lon="0.68311">
        <ele>146.4</ele>
        <time>2024-09-10T16:15:52+02:00</time>
      </trkpt>
      <trkpt lat="44.19798" lon="0.6832">
        <ele>145.9</ele>
        <time>2024-09-10T16:15:38+02:00</time>
      </trkpt>
      <trkpt lat="44.19805" lon="0.68334">
        <ele>145.8</ele>
        <time>2024-09-10T16:15:28+02:00</time>
      </trkpt>
      <trkpt lat="44.19814" lon="0.68343">
        <ele>145.2</ele>
        <time>2024-09-10T16:15:19+02:00</time>
      </trkpt>
      <trkpt lat="44.19821" lon="0.68351">
        <ele>145.4</ele>
        <time>2024-09-10T16:15:09+02:00</time>
      </trkpt>
      <trkpt lat="44.19834" lon="0.68359">
        <ele>147.2</ele>
        <time>2024-09-10T16:14:55+02:00</time>
      </trkpt>
      <trkpt lat="44.19843" lon="0.68365">
        <ele>146.7</ele>
        <time>2024-09-10T16:14:45+02:00</time>
      </trkpt>
      <trkpt lat="44.19849" lon="0.68378">
        <ele>145.3</ele>
        <time>2024-09-10T16:14:25+02:00</time>
      </trkpt>
      <trkpt lat="44.19855" lon="0.68391">
        <ele>145.2</ele>
        <time>2024-09-10T16:14:15+02:00</time>
      </trkpt>
      <trkpt lat="44.19868" lon="0.68401">
        <ele>146.4</ele>
        <time>2024-09-10T16:14:05+02:00</time>
      </trkpt>
      <trkpt lat="44.19877" lon="0.68408">
        <ele>146.9</ele>
        <time>2024-09-10T16:13:55+02:00</time>
      </trkpt>
      <trkpt lat="44.19888" lon="0.68416">
        <ele>147.9</ele>
        <time>2024-09-10T16:13:45+02:00</time>
      </trkpt>
      <trkpt lat="44.19899" lon="0.68423">
        <ele>147.2</ele>
        <time>2024-09-10T16:13:36+02:00</time>
      </trkpt>
      <trkpt lat="44.1991" lon="0.68431">
        <ele>147.7</ele>
        <time>2024-09-10T16:13:26+02:00</time>
      </trkpt>
      <trkpt lat="44.19923" lon="0.68429">
        <ele>150.5</ele>
        <time>2024-09-10T16:13:22+02:00</time>
      </trkpt>
      <trkpt lat="44.19929" lon="0.68442">
        <ele>150.5</ele>
        <time>2024-09-10T16:13:08+02:00</time>
      </trkpt>
      <trkpt lat="44.19939" lon="0.6845">
        <ele>151.5</ele>
        <time>2024-09-10T16:12:58+02:00</time>
      </trkpt>
      <trkpt lat="44.19948" lon="0.68461">
        <ele>152.9</ele>
        <time>2024-09-10T16:12:48+02:00</time>
      </trkpt>
      <trkpt lat="44.1996" lon="0.68469">
        <ele>154.3</ele>
        <time>2024-09-10T16:12:39+02:00</time>
      </trkpt>
      <trkpt lat="44.1997" lon="0.68477">
        <ele>155.5</ele>
        <time>2024-09-10T16:12:29+02:00</time>
      </trkpt>
      <trkpt lat="44.19974" lon="0.6849">
        <ele>155.8</ele>
        <time>2024-09-10T16:12:20+02:00</time>
      </trkpt>
      <trkpt lat="44.19976" lon="0.68507">
        <ele>155.4</ele>
        <time>2024-09-10T16:12:10+02:00</time>
      </trkpt>
      <trkpt lat="44.19975" lon="0.68523">
        <ele>154.5</ele>
        <time>2024-09-10T16:12:01+02:00</time>
      </trkpt>
      <trkpt lat="44.19977" lon="0.68541">
        <ele>153.8</ele>
        <time>2024-09-10T16:11:51+02:00</time>
      </trkpt>
      <trkpt lat="44.1998" lon="0.68555">
        <ele>153.2</ele>
        <time>2024-09-10T16:11:41+02:00</time>
      </trkpt>
      <trkpt lat="44.19984" lon="0.6857">
        <ele>152.5</ele>
        <time>2024-09-10T16:11:31+02:00</time>
      </trkpt>
      <trkpt lat="44.19989" lon="0.68581">
        <ele>152.7</ele>
        <time>2024-09-10T16:11:22+02:00</time>
      </trkpt>
      <trkpt lat="44.19991" lon="0.68598">
        <ele>153.3</ele>
        <time>2024-09-10T16:11:13+02:00</time>
      </trkpt>
      <trkpt lat="44.19995" lon="0.68614">
        <ele>154.2</ele>
        <time>2024-09-10T16:11:03+02:00</time>
      </trkpt>
      <trkpt lat="44.20002" lon="0.68632">
        <ele>155.2</ele>
        <time>2024-09-10T16:10:49+02:00</time>
      </trkpt>
      <trkpt lat="44.20007" lon="0.68649">
        <ele>155.5</ele>
        <time>2024-09-10T16:10:39+02:00</time>
      </trkpt>
      <trkpt lat="44.20013" lon="0.68664">
        <ele>156</ele>
        <time>2024-09-10T16:10:29+02:00</time>
      </trkpt>
      <trkpt lat="44.20018" lon="0.68678">
        <ele>156.6</ele>
        <time>2024-09-10T16:10:20+02:00</time>
      </trkpt>
      <trkpt lat="44.2002" lon="0.68693">
        <ele>157.2</ele>
        <time>2024-09-10T16:10:10+02:00</time>
      </trkpt>
      <trkpt lat="44.20031" lon="0.68698">
        <ele>158</ele>
        <time>2024-09-10T16:10:01+02:00</time>
      </trkpt>
      <trkpt lat="44.20045" lon="0.68691">
        <ele>158.6</ele>
        <time>2024-09-10T16:09:47+02:00</time>
      </trkpt>
      <trkpt lat="44.20053" lon="0.68681">
        <ele>158.9</ele>
        <time>2024-09-10T16:09:37+02:00</time>
      </trkpt>
      <trkpt lat="44.20061" lon="0.6867">
        <ele>159</ele>
        <time>2024-09-10T16:09:28+02:00</time>
      </trkpt>
      <trkpt lat="44.2007" lon="0.68661">
        <ele>159.2</ele>
        <time>2024-09-10T16:09:18+02:00</time>
      </trkpt>
      <trkpt lat="44.20081" lon="0.68652">
        <ele>160</ele>
        <time>2024-09-10T16:09:09+02:00</time>
      </trkpt>
      <trkpt lat="44.20094" lon="0.68646">
        <ele>159.7</ele>
        <time>2024-09-10T16:08:54+02:00</time>
      </trkpt>
      <trkpt lat="44.20103" lon="0.68638">
        <ele>159.6</ele>
        <time>2024-09-10T16:08:44+02:00</time>
      </trkpt>
      <trkpt lat="44.20114" lon="0.6863">
        <ele>159.1</ele>
        <time>2024-09-10T16:08:34+02:00</time>
      </trkpt>
      <trkpt lat="44.20126" lon="0.68625">
        <ele>158.2</ele>
        <time>2024-09-10T16:08:25+02:00</time>
      </trkpt>
      <trkpt lat="44.20135" lon="0.68618">
        <ele>157.4</ele>
        <time>2024-09-10T16:08:15+02:00</time>
      </trkpt>
      <trkpt lat="44.20146" lon="0.68611">
        <ele>156.8</ele>
        <time>2024-09-10T16:08:06+02:00</time>
      </trkpt>
      <trkpt lat="44.20155" lon="0.68612">
        <ele>156.4</ele>
        <time>2024-09-10T16:07:56+02:00</time>
      </trkpt>
      <trkpt lat="44.20165" lon="0.6861">
        <ele>156.1</ele>
        <time>2024-09-10T16:07:47+02:00</time>
      </trkpt>
      <trkpt lat="44.20175" lon="0.68603">
        <ele>155.7</ele>
        <time>2024-09-10T16:07:37+02:00</time>
      </trkpt>
      <trkpt lat="44.20186" lon="0.68595">
        <ele>155.3</ele>
        <time>2024-09-10T16:07:28+02:00</time>
      </trkpt>
      <trkpt lat="44.20198" lon="0.68588">
        <ele>154.5</ele>
        <time>2024-09-10T16:07:14+02:00</time>
      </trkpt>
      <trkpt lat="44.20209" lon="0.68576">
        <ele>153.2</ele>
        <time>2024-09-10T16:07:03+02:00</time>
      </trkpt>
      <trkpt lat="44.20221" lon="0.68567">
        <ele>151.7</ele>
        <time>2024-09-10T16:06:54+02:00</time>
      </trkpt>
      <trkpt lat="44.20225" lon="0.68554">
        <ele>151.3</ele>
        <time>2024-09-10T16:06:44+02:00</time>
      </trkpt>
      <trkpt lat="44.20229" lon="0.68541">
        <ele>151.2</ele>
        <time>2024-09-10T16:06:34+02:00</time>
      </trkpt>
      <trkpt lat="44.20233" lon="0.68529">
        <ele>151.5</ele>
        <time>2024-09-10T16:06:24+02:00</time>
      </trkpt>
      <trkpt lat="44.20243" lon="0.68518">
        <ele>151.1</ele>
        <time>2024-09-10T16:06:14+02:00</time>
      </trkpt>
      <trkpt lat="44.20253" lon="0.68503">
        <ele>150.5</ele>
        <time>2024-09-10T16:06:04+02:00</time>
      </trkpt>
      <trkpt lat="44.20263" lon="0.68488">
        <ele>148.5</ele>
        <time>2024-09-10T16:05:54+02:00</time>
      </trkpt>
      <trkpt lat="44.20268" lon="0.68477">
        <ele>147.8</ele>
        <time>2024-09-10T16:05:45+02:00</time>
      </trkpt>
      <trkpt lat="44.20272" lon="0.68463">
        <ele>148.3</ele>
        <time>2024-09-10T16:05:35+02:00</time>
      </trkpt>
      <trkpt lat="44.20274" lon="0.68448">
        <ele>150.3</ele>
        <time>2024-09-10T16:05:25+02:00</time>
      </trkpt>
      <trkpt lat="44.20283" lon="0.68442">
        <ele>149.3</ele>
        <time>2024-09-10T16:05:16+02:00</time>
      </trkpt>
      <trkpt lat="44.20293" lon="0.68437">
        <ele>148.4</ele>
        <time>2024-09-10T16:05:06+02:00</time>
      </trkpt>
      <trkpt lat="44.20305" lon="0.68432">
        <ele>147.7</ele>
        <time>2024-09-10T16:04:56+02:00</time>
      </trkpt>
      <trkpt lat="44.20318" lon="0.68433">
        <ele>149.5</ele>
        <time>2024-09-10T16:04:47+02:00</time>
      </trkpt>
      <trkpt lat="44.20325" lon="0.68442">
        <ele>149.5</ele>
        <time>2024-09-10T16:04:37+02:00</time>
      </trkpt>
      <trkpt lat="44.20334" lon="0.6845">
        <ele>149.5</ele>
        <time>2024-09-10T16:04:28+02:00</time>
      </trkpt>
      <trkpt lat="44.20343" lon="0.68457">
        <ele>149.3</ele>
        <time>2024-09-10T16:04:18+02:00</time>
      </trkpt>
      <trkpt lat="44.20353" lon="0.68468">
        <ele>149.3</ele>
        <time>2024-09-10T16:04:09+02:00</time>
      </trkpt>
      <trkpt lat="44.20362" lon="0.6848">
        <ele>150.3</ele>
        <time>2024-09-10T16:03:59+02:00</time>
      </trkpt>
      <trkpt lat="44.20368" lon="0.68491">
        <ele>149.5</ele>
        <time>2024-09-10T16:03:49+02:00</time>
      </trkpt>
      <trkpt lat="44.20375" lon="0.68501">
        <ele>148.8</ele>
        <time>2024-09-10T16:03:40+02:00</time>
      </trkpt>
      <trkpt lat="44.20385" lon="0.68513">
        <ele>148.1</ele>
        <time>2024-09-10T16:03:30+02:00</time>
      </trkpt>
      <trkpt lat="44.20396" lon="0.68521">
        <ele>148.4</ele>
        <time>2024-09-10T16:03:20+02:00</time>
      </trkpt>
      <trkpt lat="44.20404" lon="0.68529">
        <ele>148.5</ele>
        <time>2024-09-10T16:03:10+02:00</time>
      </trkpt>
      <trkpt lat="44.20417" lon="0.68537">
        <ele>149.3</ele>
        <time>2024-09-10T16:03:00+02:00</time>
      </trkpt>
      <trkpt lat="44.20425" lon="0.68543">
        <ele>149.2</ele>
        <time>2024-09-10T16:02:50+02:00</time>
      </trkpt>
      <trkpt lat="44.20433" lon="0.68549">
        <ele>149.1</ele>
        <time>2024-09-10T16:02:41+02:00</time>
      </trkpt>
      <trkpt lat="44.20444" lon="0.68558">
        <ele>148.9</ele>
        <time>2024-09-10T16:02:31+02:00</time>
      </trkpt>
      <trkpt lat="44.2045" lon="0.68569">
        <ele>149.1</ele>
        <time>2024-09-10T16:02:22+02:00</time>
      </trkpt>
      <trkpt lat="44.20455" lon="0.68579">
        <ele>149.3</ele>
        <time>2024-09-10T16:02:13+02:00</time>
      </trkpt>
      <trkpt lat="44.2046" lon="0.6859">
        <ele>149.6</ele>
        <time>2024-09-10T16:02:03+02:00</time>
      </trkpt>
      <trkpt lat="44.20469" lon="0.68606">
        <ele>149.9</ele>
        <time>2024-09-10T16:01:54+02:00</time>
      </trkpt>
      <trkpt lat="44.20475" lon="0.68619">
        <ele>149.4</ele>
        <time>2024-09-10T16:01:43+02:00</time>
      </trkpt>
      <trkpt lat="44.20489" lon="0.68589">
        <ele>152.5</ele>
        <time>2024-09-10T16:01:37+02:00</time>
      </trkpt>
      <trkpt lat="44.20508" lon="0.68559">
        <ele>154.8</ele>
        <time>2024-09-10T16:01:25+02:00</time>
      </trkpt>
      <trkpt lat="44.2053" lon="0.68507">
        <ele>159.6</ele>
        <time>2024-09-10T16:01:15+02:00</time>
      </trkpt>
      <trkpt lat="44.2055" lon="0.68474">
        <ele>163.2</ele>
        <time>2024-09-10T16:01:06+02:00</time>
      </trkpt>
      <trkpt lat="44.20574" lon="0.68363">
        <ele>171</ele>
        <time>2024-09-10T16:00:19+02:00</time>
      </trkpt>
      <trkpt lat="44.2059" lon="0.68313">
        <ele>173.8</ele>
        <time>2024-09-10T16:00:10+02:00</time>
      </trkpt>
      <trkpt lat="44.20601" lon="0.6834">
        <ele>173.2</ele>
        <time>2024-09-10T16:00:00+02:00</time>
      </trkpt>
      <trkpt lat="44.20622" lon="0.68351">
        <ele>172</ele>
        <time>2024-09-10T15:59:51+02:00</time>
      </trkpt>
      <trkpt lat="44.20641" lon="0.68366">
        <ele>171</ele>
        <time>2024-09-10T15:59:36+02:00</time>
      </trkpt>
      <trkpt lat="44.20666" lon="0.68378">
        <ele>170.4</ele>
        <time>2024-09-10T15:59:27+02:00</time>
      </trkpt>
      <trkpt lat="44.20704" lon="0.68408">
        <ele>167.1</ele>
        <time>2024-09-10T15:59:17+02:00</time>
      </trkpt>
      <trkpt lat="44.20737" lon="0.68427">
        <ele>162.4</ele>
        <time>2024-09-10T15:59:07+02:00</time>
      </trkpt>
      <trkpt lat="44.20774" lon="0.68462">
        <ele>157.4</ele>
        <time>2024-09-10T15:52:45+02:00</time>
      </trkpt>
      <trkpt lat="44.20811" lon="0.68501">
        <ele>155.8</ele>
        <time>2024-09-10T15:52:35+02:00</time>
      </trkpt>
      <trkpt lat="44.2081" lon="0.68542">
        <ele>156.4</ele>
        <time>2024-09-10T15:52:26+02:00</time>
      </trkpt>
      <trkpt lat="44.20802" lon="0.68579">
        <ele>156.2</ele>
        <time>2024-09-10T15:52:11+02:00</time>
      </trkpt>
      <trkpt lat="44.20804" lon="0.68622">
        <ele>154.6</ele>
        <time>2024-09-10T15:51:56+02:00</time>
      </trkpt>
      <trkpt lat="44.2084" lon="0.68642">
        <ele>153.1</ele>
        <time>2024-09-10T15:51:36+02:00</time>
      </trkpt>
      <trkpt lat="44.2086" lon="0.68659">
        <ele>153.7</ele>
        <time>2024-09-10T15:51:27+02:00</time>
      </trkpt>
      <trkpt lat="44.20876" lon="0.68691">
        <ele>155</ele>
      </trkpt>
      <trkpt lat="44.20896" lon="0.68733">
        <ele>158.1</ele>
      </trkpt>
      <trkpt lat="44.20924" lon="0.68731">
        <ele>158.6</ele>
      </trkpt>
      <trkpt lat="44.20943" lon="0.68784">
        <ele>153.3</ele>
        <time>2024-09-10T15:47:15+02:00</time>
      </trkpt>
      <trkpt lat="44.20954" lon="0.68787">
        <ele>152.2</ele>
        <time>2024-09-10T15:47:06+02:00</time>
      </trkpt>
      <trkpt lat="44.20965" lon="0.68793">
        <ele>151.2</ele>
        <time>2024-09-10T15:46:56+02:00</time>
      </trkpt>
      <trkpt lat="44.20974" lon="0.688">
        <ele>150.4</ele>
        <time>2024-09-10T15:46:47+02:00</time>
      </trkpt>
      <trkpt lat="44.20984" lon="0.68802">
        <ele>150.6</ele>
        <time>2024-09-10T15:46:37+02:00</time>
      </trkpt>
      <trkpt lat="44.20994" lon="0.68804">
        <ele>150.9</ele>
        <time>2024-09-10T15:46:28+02:00</time>
      </trkpt>
      <trkpt lat="44.21005" lon="0.68812">
        <ele>150.8</ele>
        <time>2024-09-10T15:46:18+02:00</time>
      </trkpt>
      <trkpt lat="44.21014" lon="0.68818">
        <ele>151.1</ele>
        <time>2024-09-10T15:46:08+02:00</time>
      </trkpt>
      <trkpt lat="44.21027" lon="0.68826">
        <ele>151.9</ele>
        <time>2024-09-10T15:45:58+02:00</time>
      </trkpt>
      <trkpt lat="44.21039" lon="0.68829">
        <ele>152.4</ele>
        <time>2024-09-10T15:45:49+02:00</time>
      </trkpt>
      <trkpt lat="44.21049" lon="0.68837">
        <ele>152.1</ele>
        <time>2024-09-10T15:45:39+02:00</time>
      </trkpt>
      <trkpt lat="44.2106" lon="0.68848">
        <ele>150.8</ele>
        <time>2024-09-10T15:45:29+02:00</time>
      </trkpt>
      <trkpt lat="44.21069" lon="0.6886">
        <ele>150.1</ele>
        <time>2024-09-10T15:45:20+02:00</time>
      </trkpt>
      <trkpt lat="44.21077" lon="0.68874">
        <ele>149.8</ele>
        <time>2024-09-10T15:45:10+02:00</time>
      </trkpt>
      <trkpt lat="44.21085" lon="0.68888">
        <ele>151.1</ele>
        <time>2024-09-10T15:45:01+02:00</time>
      </trkpt>
      <trkpt lat="44.21096" lon="0.68897">
        <ele>150.3</ele>
        <time>2024-09-10T15:44:50+02:00</time>
      </trkpt>
      <trkpt lat="44.21104" lon="0.68905">
        <ele>150.5</ele>
        <time>2024-09-10T15:44:40+02:00</time>
      </trkpt>
      <trkpt lat="44.21116" lon="0.68909">
        <ele>151.6</ele>
        <time>2024-09-10T15:44:31+02:00</time>
      </trkpt>
      <trkpt lat="44.21126" lon="0.68918">
        <ele>152</ele>
        <time>2024-09-10T15:44:22+02:00</time>
      </trkpt>
      <trkpt lat="44.21138" lon="0.68921">
        <ele>152.7</ele>
        <time>2024-09-10T15:44:12+02:00</time>
      </trkpt>
      <trkpt lat="44.21151" lon="0.6893">
        <ele>153.4</ele>
        <time>2024-09-10T15:44:03+02:00</time>
      </trkpt>
      <trkpt lat="44.21162" lon="0.68936">
        <ele>154</ele>
        <time>2024-09-10T15:43:54+02:00</time>
      </trkpt>
      <trkpt lat="44.21175" lon="0.68945">
        <ele>154.9</ele>
        <time>2024-09-10T15:43:44+02:00</time>
      </trkpt>
      <trkpt lat="44.21187" lon="0.68952">
        <ele>156.2</ele>
        <time>2024-09-10T15:43:35+02:00</time>
      </trkpt>
      <trkpt lat="44.21198" lon="0.68961">
        <ele>157.2</ele>
        <time>2024-09-10T15:43:26+02:00</time>
      </trkpt>
      <trkpt lat="44.21207" lon="0.68967">
        <ele>157.9</ele>
        <time>2024-09-10T15:43:15+02:00</time>
      </trkpt>
      <trkpt lat="44.21215" lon="0.68975">
        <ele>158.4</ele>
        <time>2024-09-10T15:43:06+02:00</time>
      </trkpt>
      <trkpt lat="44.21223" lon="0.68984">
        <ele>158.7</ele>
        <time>2024-09-10T15:42:52+02:00</time>
      </trkpt>
      <trkpt lat="44.21231" lon="0.68995">
        <ele>158.8</ele>
        <time>2024-09-10T15:42:42+02:00</time>
      </trkpt>
      <trkpt lat="44.21236" lon="0.69007">
        <ele>158.9</ele>
        <time>2024-09-10T15:42:33+02:00</time>
      </trkpt>
      <trkpt lat="44.21241" lon="0.69023">
        <ele>159.1</ele>
        <time>2024-09-10T15:42:24+02:00</time>
      </trkpt>
      <trkpt lat="44.21244" lon="0.6904">
        <ele>158.4</ele>
        <time>2024-09-10T15:42:14+02:00</time>
      </trkpt>
      <trkpt lat="44.21249" lon="0.69055">
        <ele>157.1</ele>
        <time>2024-09-10T15:42:04+02:00</time>
      </trkpt>
      <trkpt lat="44.21252" lon="0.6907">
        <ele>156.7</ele>
        <time>2024-09-10T15:41:55+02:00</time>
      </trkpt>
      <trkpt lat="44.21253" lon="0.69087">
        <ele>156.1</ele>
        <time>2024-09-10T15:41:45+02:00</time>
      </trkpt>
      <trkpt lat="44.21257" lon="0.69103">
        <ele>155.3</ele>
        <time>2024-09-10T15:41:36+02:00</time>
      </trkpt>
      <trkpt lat="44.2126" lon="0.6912">
        <ele>153.4</ele>
        <time>2024-09-10T15:41:26+02:00</time>
      </trkpt>
      <trkpt lat="44.21268" lon="0.69138">
        <ele>151.9</ele>
        <time>2024-09-10T15:41:17+02:00</time>
      </trkpt>
      <trkpt lat="44.21277" lon="0.6915">
        <ele>151.6</ele>
        <time>2024-09-10T15:41:06+02:00</time>
      </trkpt>
      <trkpt lat="44.21284" lon="0.69158">
        <ele>151.6</ele>
        <time>2024-09-10T15:40:57+02:00</time>
      </trkpt>
      <trkpt lat="44.21296" lon="0.69176">
        <ele>150.4</ele>
        <time>2024-09-10T15:40:47+02:00</time>
      </trkpt>
      <trkpt lat="44.21306" lon="0.6918">
        <ele>152.2</ele>
        <time>2024-09-10T15:40:37+02:00</time>
      </trkpt>
      <trkpt lat="44.21317" lon="0.69187">
        <ele>150.2</ele>
        <time>2024-09-10T15:40:27+02:00</time>
      </trkpt>
      <trkpt lat="44.2133" lon="0.69186">
        <ele>150.3</ele>
        <time>2024-09-10T15:40:17+02:00</time>
      </trkpt>
      <trkpt lat="44.21342" lon="0.69188">
        <ele>148.6</ele>
        <time>2024-09-10T15:40:07+02:00</time>
      </trkpt>
      <trkpt lat="44.21355" lon="0.69187">
        <ele>148.1</ele>
        <time>2024-09-10T15:39:58+02:00</time>
      </trkpt>
      <trkpt lat="44.21368" lon="0.69178">
        <ele>150.5</ele>
        <time>2024-09-10T15:39:48+02:00</time>
      </trkpt>
      <trkpt lat="44.21379" lon="0.69172">
        <ele>151.9</ele>
        <time>2024-09-10T15:39:38+02:00</time>
      </trkpt>
      <trkpt lat="44.21394" lon="0.69171">
        <ele>151</ele>
        <time>2024-09-10T15:39:29+02:00</time>
      </trkpt>
      <trkpt lat="44.21408" lon="0.69177">
        <ele>149.3</ele>
        <time>2024-09-10T15:39:19+02:00</time>
      </trkpt>
      <trkpt lat="44.21421" lon="0.69176">
        <ele>151.7</ele>
        <time>2024-09-10T15:39:09+02:00</time>
      </trkpt>
      <trkpt lat="44.21433" lon="0.69179">
        <ele>152.6</ele>
        <time>2024-09-10T15:38:59+02:00</time>
      </trkpt>
      <trkpt lat="44.21443" lon="0.6918">
        <ele>154.3</ele>
        <time>2024-09-10T15:38:49+02:00</time>
      </trkpt>
      <trkpt lat="44.21453" lon="0.69177">
        <ele>154.9</ele>
        <time>2024-09-10T15:38:40+02:00</time>
      </trkpt>
      <trkpt lat="44.21463" lon="0.69183">
        <ele>155.1</ele>
        <time>2024-09-10T15:38:30+02:00</time>
      </trkpt>
      <trkpt lat="44.2147" lon="0.69197">
        <ele>154.9</ele>
        <time>2024-09-10T15:38:20+02:00</time>
      </trkpt>
      <trkpt lat="44.21476" lon="0.69212">
        <ele>155.4</ele>
        <time>2024-09-10T15:38:11+02:00</time>
      </trkpt>
      <trkpt lat="44.21482" lon="0.69226">
        <ele>156.1</ele>
        <time>2024-09-10T15:38:02+02:00</time>
      </trkpt>
      <trkpt lat="44.21489" lon="0.6924">
        <ele>156.8</ele>
        <time>2024-09-10T15:37:52+02:00</time>
      </trkpt>
      <trkpt lat="44.21493" lon="0.69259">
        <ele>157.3</ele>
        <time>2024-09-10T15:37:42+02:00</time>
      </trkpt>
      <trkpt lat="44.21502" lon="0.69277">
        <ele>158.2</ele>
        <time>2024-09-10T15:37:27+02:00</time>
      </trkpt>
      <trkpt lat="44.2151" lon="0.69291">
        <ele>158.5</ele>
        <time>2024-09-10T15:37:17+02:00</time>
      </trkpt>
      <trkpt lat="44.21516" lon="0.69303">
        <ele>158.3</ele>
        <time>2024-09-10T15:37:08+02:00</time>
      </trkpt>
      <trkpt lat="44.21522" lon="0.69316">
        <ele>157.8</ele>
        <time>2024-09-10T15:36:58+02:00</time>
      </trkpt>
      <trkpt lat="44.21532" lon="0.6933">
        <ele>157.4</ele>
        <time>2024-09-10T15:36:48+02:00</time>
      </trkpt>
      <trkpt lat="44.2154" lon="0.69343">
        <ele>156.3</ele>
        <time>2024-09-10T15:36:38+02:00</time>
      </trkpt>
      <trkpt lat="44.21549" lon="0.6936">
        <ele>154.2</ele>
        <time>2024-09-10T15:36:23+02:00</time>
      </trkpt>
      <trkpt lat="44.21556" lon="0.6937">
        <ele>153.4</ele>
        <time>2024-09-10T15:36:14+02:00</time>
      </trkpt>
      <trkpt lat="44.21564" lon="0.69381">
        <ele>153.4</ele>
        <time>2024-09-10T15:36:05+02:00</time>
      </trkpt>
      <trkpt lat="44.21574" lon="0.69393">
        <ele>152.8</ele>
        <time>2024-09-10T15:35:55+02:00</time>
      </trkpt>
      <trkpt lat="44.21584" lon="0.69405">
        <ele>151.1</ele>
        <time>2024-09-10T15:35:45+02:00</time>
      </trkpt>
      <trkpt lat="44.21591" lon="0.69413">
        <ele>150.5</ele>
        <time>2024-09-10T15:35:36+02:00</time>
      </trkpt>
      <trkpt lat="44.21598" lon="0.69422">
        <ele>150.6</ele>
        <time>2024-09-10T15:35:27+02:00</time>
      </trkpt>
      <trkpt lat="44.21602" lon="0.69434">
        <ele>150.3</ele>
        <time>2024-09-10T15:35:16+02:00</time>
      </trkpt>
      <trkpt lat="44.21599" lon="0.69448">
        <ele>148.6</ele>
        <time>2024-09-10T15:35:06+02:00</time>
      </trkpt>
      <trkpt lat="44.21595" lon="0.69469">
        <ele>148.6</ele>
        <time>2024-09-10T15:34:56+02:00</time>
      </trkpt>
      <trkpt lat="44.21587" lon="0.69483">
        <ele>148.6</ele>
        <time>2024-09-10T15:34:47+02:00</time>
      </trkpt>
      <trkpt lat="44.21575" lon="0.69491">
        <ele>148.1</ele>
        <time>2024-09-10T15:34:38+02:00</time>
      </trkpt>
      <trkpt lat="44.21564" lon="0.69497">
        <ele>148</ele>
        <time>2024-09-10T15:34:28+02:00</time>
      </trkpt>
      <trkpt lat="44.21556" lon="0.69507">
        <ele>149.3</ele>
        <time>2024-09-10T15:34:18+02:00</time>
      </trkpt>
      <trkpt lat="44.21544" lon="0.69514">
        <ele>148.6</ele>
        <time>2024-09-10T15:34:03+02:00</time>
      </trkpt>
      <trkpt lat="44.21532" lon="0.6952">
        <ele>148.5</ele>
        <time>2024-09-10T15:33:54+02:00</time>
      </trkpt>
      <trkpt lat="44.21519" lon="0.69527">
        <ele>148.2</ele>
        <time>2024-09-10T15:33:45+02:00</time>
      </trkpt>
      <trkpt lat="44.2151" lon="0.69531">
        <ele>146.5</ele>
        <time>2024-09-10T15:33:35+02:00</time>
      </trkpt>
      <trkpt lat="44.21498" lon="0.69538">
        <ele>146.7</ele>
        <time>2024-09-10T15:33:25+02:00</time>
      </trkpt>
      <trkpt lat="44.21486" lon="0.69546">
        <ele>149</ele>
        <time>2024-09-10T15:33:15+02:00</time>
      </trkpt>
      <trkpt lat="44.21474" lon="0.69549">
        <ele>149.8</ele>
        <time>2024-09-10T15:33:05+02:00</time>
      </trkpt>
      <trkpt lat="44.21466" lon="0.69556">
        <ele>152.3</ele>
        <time>2024-09-10T15:32:51+02:00</time>
      </trkpt>
      <trkpt lat="44.21465" lon="0.69569">
        <ele>153.2</ele>
        <time>2024-09-10T15:32:42+02:00</time>
      </trkpt>
      <trkpt lat="44.21462" lon="0.69582">
        <ele>154.2</ele>
        <time>2024-09-10T15:32:32+02:00</time>
      </trkpt>
      <trkpt lat="44.21462" lon="0.696">
        <ele>155.4</ele>
        <time>2024-09-10T15:32:18+02:00</time>
      </trkpt>
      <trkpt lat="44.21458" lon="0.69615">
        <ele>156.3</ele>
        <time>2024-09-10T15:32:04+02:00</time>
      </trkpt>
      <trkpt lat="44.21457" lon="0.69631">
        <ele>157.4</ele>
        <time>2024-09-10T15:31:54+02:00</time>
      </trkpt>
      <trkpt lat="44.21454" lon="0.69645">
        <ele>158.5</ele>
        <time>2024-09-10T15:31:44+02:00</time>
      </trkpt>
      <trkpt lat="44.21446" lon="0.69659">
        <ele>159.4</ele>
        <time>2024-09-10T15:31:35+02:00</time>
      </trkpt>
      <trkpt lat="44.21445" lon="0.69676">
        <ele>160.7</ele>
        <time>2024-09-10T15:31:21+02:00</time>
      </trkpt>
      <trkpt lat="44.21439" lon="0.69695">
        <ele>162.1</ele>
        <time>2024-09-10T15:31:06+02:00</time>
      </trkpt>
      <trkpt lat="44.21437" lon="0.69711">
        <ele>163</ele>
        <time>2024-09-10T15:30:56+02:00</time>
      </trkpt>
      <trkpt lat="44.21434" lon="0.69725">
        <ele>163.8</ele>
        <time>2024-09-10T15:30:47+02:00</time>
      </trkpt>
      <trkpt lat="44.21428" lon="0.69738">
        <ele>164.8</ele>
        <time>2024-09-10T15:30:37+02:00</time>
      </trkpt>
      <trkpt lat="44.21419" lon="0.6975">
        <ele>165.1</ele>
        <time>2024-09-10T15:30:27+02:00</time>
      </trkpt>
      <trkpt lat="44.21408" lon="0.6976">
        <ele>165.1</ele>
        <time>2024-09-10T15:30:17+02:00</time>
      </trkpt>
      <trkpt lat="44.21399" lon="0.6977">
        <ele>165.2</ele>
        <time>2024-09-10T15:30:08+02:00</time>
      </trkpt>
      <trkpt lat="44.2139" lon="0.69785">
        <ele>165.8</ele>
        <time>2024-09-10T15:29:58+02:00</time>
      </trkpt>
      <trkpt lat="44.21379" lon="0.69795">
        <ele>166.2</ele>
        <time>2024-09-10T15:29:48+02:00</time>
      </trkpt>
      <trkpt lat="44.21367" lon="0.69803">
        <ele>166.2</ele>
        <time>2024-09-10T15:29:39+02:00</time>
      </trkpt>
      <trkpt lat="44.21358" lon="0.69813">
        <ele>166.4</ele>
        <time>2024-09-10T15:29:29+02:00</time>
      </trkpt>
      <trkpt lat="44.21351" lon="0.69824">
        <ele>167</ele>
        <time>2024-09-10T15:29:19+02:00</time>
      </trkpt>
      <trkpt lat="44.21342" lon="0.69836">
        <ele>167.3</ele>
        <time>2024-09-10T15:29:09+02:00</time>
      </trkpt>
      <trkpt lat="44.21332" lon="0.69849">
        <ele>166.9</ele>
        <time>2024-09-10T15:29:00+02:00</time>
      </trkpt>
      <trkpt lat="44.21324" lon="0.69855">
        <ele>166.6</ele>
        <time>2024-09-10T15:28:51+02:00</time>
      </trkpt>
      <trkpt lat="44.21317" lon="0.69865">
        <ele>166.4</ele>
        <time>2024-09-10T15:28:41+02:00</time>
      </trkpt>
      <trkpt lat="44.21305" lon="0.69874">
        <ele>166</ele>
        <time>2024-09-10T15:27:37+02:00</time>
      </trkpt>
      <trkpt lat="44.21297" lon="0.69883">
        <ele>165.4</ele>
        <time>2024-09-10T15:27:28+02:00</time>
      </trkpt>
      <trkpt lat="44.2129" lon="0.69894">
        <ele>164.8</ele>
        <time>2024-09-10T15:27:18+02:00</time>
      </trkpt>
      <trkpt lat="44.21282" lon="0.69906">
        <ele>164.3</ele>
        <time>2024-09-10T15:27:09+02:00</time>
      </trkpt>
      <trkpt lat="44.21271" lon="0.69917">
        <ele>163.5</ele>
        <time>2024-09-10T15:26:58+02:00</time>
      </trkpt>
      <trkpt lat="44.21263" lon="0.69928">
        <ele>162.5</ele>
        <time>2024-09-10T15:26:49+02:00</time>
      </trkpt>
      <trkpt lat="44.21253" lon="0.69938">
        <ele>161.5</ele>
        <time>2024-09-10T15:26:39+02:00</time>
      </trkpt>
      <trkpt lat="44.21246" lon="0.69947">
        <ele>160.8</ele>
        <time>2024-09-10T15:26:30+02:00</time>
      </trkpt>
      <trkpt lat="44.2124" lon="0.69957">
        <ele>160.5</ele>
        <time>2024-09-10T15:26:21+02:00</time>
      </trkpt>
      <trkpt lat="44.21232" lon="0.69969">
        <ele>159.8</ele>
        <time>2024-09-10T15:26:11+02:00</time>
      </trkpt>
      <trkpt lat="44.21223" lon="0.69973">
        <ele>159</ele>
        <time>2024-09-10T15:25:22+02:00</time>
      </trkpt>
      <trkpt lat="44.21215" lon="0.69962">
        <ele>159</ele>
        <time>2024-09-10T15:25:13+02:00</time>
      </trkpt>
      <trkpt lat="44.21206" lon="0.6995">
        <ele>158.8</ele>
        <time>2024-09-10T15:25:03+02:00</time>
      </trkpt>
      <trkpt lat="44.21199" lon="0.69938">
        <ele>158.6</ele>
        <time>2024-09-10T15:24:53+02:00</time>
      </trkpt>
      <trkpt lat="44.21191" lon="0.69923">
        <ele>158.7</ele>
        <time>2024-09-10T15:24:44+02:00</time>
      </trkpt>
      <trkpt lat="44.21183" lon="0.69912">
        <ele>158.7</ele>
        <time>2024-09-10T15:24:34+02:00</time>
      </trkpt>
      <trkpt lat="44.21175" lon="0.699">
        <ele>158.5</ele>
        <time>2024-09-10T15:24:25+02:00</time>
      </trkpt>
      <trkpt lat="44.21161" lon="0.69889">
        <ele>158</ele>
        <time>2024-09-10T15:24:16+02:00</time>
      </trkpt>
      <trkpt lat="44.21153" lon="0.69879">
        <ele>158</ele>
        <time>2024-09-10T15:24:06+02:00</time>
      </trkpt>
      <trkpt lat="44.21148" lon="0.69865">
        <ele>158</ele>
        <time>2024-09-10T15:23:57+02:00</time>
      </trkpt>
      <trkpt lat="44.21142" lon="0.69854">
        <ele>157.8</ele>
        <time>2024-09-10T15:23:48+02:00</time>
      </trkpt>
      <trkpt lat="44.21134" lon="0.69841">
        <ele>157.2</ele>
        <time>2024-09-10T15:23:34+02:00</time>
      </trkpt>
      <trkpt lat="44.21127" lon="0.6983">
        <ele>156.9</ele>
        <time>2024-09-10T15:23:25+02:00</time>
      </trkpt>
      <trkpt lat="44.2112" lon="0.6982">
        <ele>156.7</ele>
        <time>2024-09-10T15:23:15+02:00</time>
      </trkpt>
      <trkpt lat="44.21108" lon="0.69809">
        <ele>156</ele>
        <time>2024-09-10T15:23:06+02:00</time>
      </trkpt>
      <trkpt lat="44.21099" lon="0.69796">
        <ele>155.6</ele>
        <time>2024-09-10T15:22:56+02:00</time>
      </trkpt>
      <trkpt lat="44.21093" lon="0.69785">
        <ele>155.3</ele>
        <time>2024-09-10T15:22:47+02:00</time>
      </trkpt>
      <trkpt lat="44.2108" lon="0.69777">
        <ele>154.9</ele>
        <time>2024-09-10T15:22:33+02:00</time>
      </trkpt>
      <trkpt lat="44.21072" lon="0.69786">
        <ele>154.6</ele>
        <time>2024-09-10T15:22:24+02:00</time>
      </trkpt>
      <trkpt lat="44.21063" lon="0.69792">
        <ele>154.3</ele>
        <time>2024-09-10T15:22:14+02:00</time>
      </trkpt>
      <trkpt lat="44.21055" lon="0.69797">
        <ele>153.7</ele>
        <time>2024-09-10T15:22:05+02:00</time>
      </trkpt>
      <trkpt lat="44.21051" lon="0.69809">
        <ele>152.2</ele>
        <time>2024-09-10T15:21:56+02:00</time>
      </trkpt>
      <trkpt lat="44.21049" lon="0.6983">
        <ele>151.3</ele>
        <time>2024-09-10T15:21:42+02:00</time>
      </trkpt>
      <trkpt lat="44.21043" lon="0.69843">
        <ele>150.3</ele>
        <time>2024-09-10T15:21:33+02:00</time>
      </trkpt>
      <trkpt lat="44.21037" lon="0.69856">
        <ele>150.6</ele>
        <time>2024-09-10T15:21:22+02:00</time>
      </trkpt>
      <trkpt lat="44.21032" lon="0.69867">
        <ele>151.3</ele>
        <time>2024-09-10T15:21:13+02:00</time>
      </trkpt>
      <trkpt lat="44.21025" lon="0.69878">
        <ele>150.5</ele>
        <time>2024-09-10T15:21:04+02:00</time>
      </trkpt>
      <trkpt lat="44.21021" lon="0.69892">
        <ele>150</ele>
        <time>2024-09-10T15:20:55+02:00</time>
      </trkpt>
      <trkpt lat="44.21018" lon="0.69906">
        <ele>148.6</ele>
        <time>2024-09-10T15:20:45+02:00</time>
      </trkpt>
      <trkpt lat="44.21016" lon="0.69919">
        <ele>148.1</ele>
        <time>2024-09-10T15:20:36+02:00</time>
      </trkpt>
      <trkpt lat="44.21014" lon="0.69933">
        <ele>148.6</ele>
        <time>2024-09-10T15:20:27+02:00</time>
      </trkpt>
      <trkpt lat="44.21013" lon="0.69949">
        <ele>149.7</ele>
        <time>2024-09-10T15:20:18+02:00</time>
      </trkpt>
      <trkpt lat="44.21007" lon="0.69963">
        <ele>150.6</ele>
        <time>2024-09-10T15:20:09+02:00</time>
      </trkpt>
      <trkpt lat="44.21001" lon="0.69976">
        <ele>152.1</ele>
        <time>2024-09-10T15:20:00+02:00</time>
      </trkpt>
      <trkpt lat="44.20999" lon="0.69994">
        <ele>151.3</ele>
        <time>2024-09-10T15:19:46+02:00</time>
      </trkpt>
      <trkpt lat="44.21" lon="0.7001">
        <ele>151.7</ele>
        <time>2024-09-10T15:19:36+02:00</time>
      </trkpt>
      <trkpt lat="44.21006" lon="0.70023">
        <ele>151.7</ele>
        <time>2024-09-10T15:19:27+02:00</time>
      </trkpt>
      <trkpt lat="44.21011" lon="0.70034">
        <ele>150.8</ele>
        <time>2024-09-10T15:19:18+02:00</time>
      </trkpt>
      <trkpt lat="44.21019" lon="0.70044">
        <ele>150.2</ele>
        <time>2024-09-10T15:19:09+02:00</time>
      </trkpt>
      <trkpt lat="44.21027" lon="0.70053">
        <ele>151</ele>
        <time>2024-09-10T15:19:00+02:00</time>
      </trkpt>
      <trkpt lat="44.21032" lon="0.70066">
        <ele>149.1</ele>
        <time>2024-09-10T15:18:50+02:00</time>
      </trkpt>
      <trkpt lat="44.21041" lon="0.70078">
        <ele>148.5</ele>
        <time>2024-09-10T15:18:40+02:00</time>
      </trkpt>
      <trkpt lat="44.21046" lon="0.70092">
        <ele>147.6</ele>
        <time>2024-09-10T15:18:31+02:00</time>
      </trkpt>
      <trkpt lat="44.21054" lon="0.70103">
        <ele>148</ele>
        <time>2024-09-10T15:18:22+02:00</time>
      </trkpt>
      <trkpt lat="44.21066" lon="0.70109">
        <ele>149.6</ele>
        <time>2024-09-10T15:18:13+02:00</time>
      </trkpt>
      <trkpt lat="44.21071" lon="0.70124">
        <ele>147.7</ele>
        <time>2024-09-10T15:18:02+02:00</time>
      </trkpt>
      <trkpt lat="44.2108" lon="0.70126">
        <ele>149.8</ele>
        <time>2024-09-10T15:17:12+02:00</time>
      </trkpt>
      <trkpt lat="44.21087" lon="0.70144">
        <ele>147.9</ele>
        <time>2024-09-10T15:16:58+02:00</time>
      </trkpt>
      <trkpt lat="44.21094" lon="0.70151">
        <ele>147.1</ele>
        <time>2024-09-10T15:16:48+02:00</time>
      </trkpt>
      <trkpt lat="44.21101" lon="0.70161">
        <ele>146</ele>
        <time>2024-09-10T15:16:29+02:00</time>
      </trkpt>
      <trkpt lat="44.21109" lon="0.70169">
        <ele>145.7</ele>
        <time>2024-09-10T15:16:14+02:00</time>
      </trkpt>
      <trkpt lat="44.21121" lon="0.70176">
        <ele>142.5</ele>
        <time>2024-09-10T15:16:04+02:00</time>
      </trkpt>
      <trkpt lat="44.21134" lon="0.70176">
        <ele>140.3</ele>
        <time>2024-09-10T15:15:50+02:00</time>
      </trkpt>
      <trkpt lat="44.21144" lon="0.70173">
        <ele>139.5</ele>
        <time>2024-09-10T15:15:40+02:00</time>
      </trkpt>
      <trkpt lat="44.21154" lon="0.70168">
        <ele>139</ele>
        <time>2024-09-10T15:15:31+02:00</time>
      </trkpt>
      <trkpt lat="44.21165" lon="0.70156">
        <ele>140.1</ele>
        <time>2024-09-10T15:15:26+02:00</time>
      </trkpt>
      <trkpt lat="44.21175" lon="0.70158">
        <ele>137.6</ele>
        <time>2024-09-10T15:14:48+02:00</time>
      </trkpt>
      <trkpt lat="44.21166" lon="0.70167">
        <ele>135.9</ele>
        <time>2024-09-10T15:14:39+02:00</time>
      </trkpt>
      <trkpt lat="44.21157" lon="0.70177">
        <ele>135.4</ele>
        <time>2024-09-10T15:14:29+02:00</time>
      </trkpt>
      <trkpt lat="44.21156" lon="0.7019">
        <ele>131.8</ele>
        <time>2024-09-10T15:14:19+02:00</time>
      </trkpt>
      <trkpt lat="44.21149" lon="0.70199">
        <ele>130.6</ele>
        <time>2024-09-10T15:14:09+02:00</time>
      </trkpt>
      <trkpt lat="44.21141" lon="0.70216">
        <ele>128.1</ele>
        <time>2024-09-10T15:13:54+02:00</time>
      </trkpt>
      <trkpt lat="44.21136" lon="0.70228">
        <ele>126.4</ele>
        <time>2024-09-10T15:13:45+02:00</time>
      </trkpt>
      <trkpt lat="44.2113" lon="0.7024">
        <ele>125.5</ele>
        <time>2024-09-10T15:13:35+02:00</time>
      </trkpt>
      <trkpt lat="44.21122" lon="0.70251">
        <ele>125</ele>
        <time>2024-09-10T15:13:25+02:00</time>
      </trkpt>
      <trkpt lat="44.21114" lon="0.70267">
        <ele>122.9</ele>
        <time>2024-09-10T15:13:00+02:00</time>
      </trkpt>
      <trkpt lat="44.21104" lon="0.70275">
        <ele>121.6</ele>
        <time>2024-09-10T15:12:51+02:00</time>
      </trkpt>
      <trkpt lat="44.21095" lon="0.70285">
        <ele>119.2</ele>
        <time>2024-09-10T15:12:36+02:00</time>
      </trkpt>
      <trkpt lat="44.21088" lon="0.70294">
        <ele>117.3</ele>
        <time>2024-09-10T15:12:27+02:00</time>
      </trkpt>
      <trkpt lat="44.21079" lon="0.70305">
        <ele>115.1</ele>
        <time>2024-09-10T15:12:17+02:00</time>
      </trkpt>
      <trkpt lat="44.21071" lon="0.70316">
        <ele>113.8</ele>
        <time>2024-09-10T15:12:08+02:00</time>
      </trkpt>
      <trkpt lat="44.21065" lon="0.70327">
        <ele>112.9</ele>
        <time>2024-09-10T15:11:59+02:00</time>
      </trkpt>
      <trkpt lat="44.21058" lon="0.70337">
        <ele>112.4</ele>
        <time>2024-09-10T15:11:49+02:00</time>
      </trkpt>
      <trkpt lat="44.21052" lon="0.7035">
        <ele>111.1</ele>
        <time>2024-09-10T15:11:40+02:00</time>
      </trkpt>
      <trkpt lat="44.21047" lon="0.70364">
        <ele>109.6</ele>
        <time>2024-09-10T15:11:30+02:00</time>
      </trkpt>
      <trkpt lat="44.21043" lon="0.70377">
        <ele>109</ele>
        <time>2024-09-10T15:11:21+02:00</time>
      </trkpt>
      <trkpt lat="44.21034" lon="0.70395">
        <ele>108.2</ele>
        <time>2024-09-10T15:10:36+02:00</time>
      </trkpt>
      <trkpt lat="44.21028" lon="0.70406">
        <ele>108</ele>
        <time>2024-09-10T15:10:27+02:00</time>
      </trkpt>
      <trkpt lat="44.21022" lon="0.70418">
        <ele>107.4</ele>
        <time>2024-09-10T15:10:17+02:00</time>
      </trkpt>
      <trkpt lat="44.21009" lon="0.70424">
        <ele>105.7</ele>
        <time>2024-09-10T15:10:03+02:00</time>
      </trkpt>
      <trkpt lat="44.20999" lon="0.70418">
        <ele>104.8</ele>
        <time>2024-09-10T15:09:53+02:00</time>
      </trkpt>
      <trkpt lat="44.20989" lon="0.70409">
        <ele>102.9</ele>
        <time>2024-09-10T15:09:43+02:00</time>
      </trkpt>
      <trkpt lat="44.20977" lon="0.704">
        <ele>100.8</ele>
        <time>2024-09-10T15:09:34+02:00</time>
      </trkpt>
      <trkpt lat="44.20969" lon="0.70393">
        <ele>99.6</ele>
        <time>2024-09-10T15:09:04+02:00</time>
      </trkpt>
      <trkpt lat="44.20959" lon="0.70392">
        <ele>98.1</ele>
        <time>2024-09-10T15:08:53+02:00</time>
      </trkpt>
      <trkpt lat="44.20948" lon="0.70389">
        <ele>96.6</ele>
        <time>2024-09-10T15:08:44+02:00</time>
      </trkpt>
      <trkpt lat="44.20938" lon="0.70385">
        <ele>95.6</ele>
        <time>2024-09-10T15:08:34+02:00</time>
      </trkpt>
      <trkpt lat="44.20928" lon="0.7038">
        <ele>94.9</ele>
        <time>2024-09-10T15:08:25+02:00</time>
      </trkpt>
      <trkpt lat="44.20916" lon="0.70378">
        <ele>93.4</ele>
        <time>2024-09-10T15:08:15+02:00</time>
      </trkpt>
      <trkpt lat="44.20904" lon="0.70385">
        <ele>91.1</ele>
        <time>2024-09-10T15:08:05+02:00</time>
      </trkpt>
      <trkpt lat="44.20895" lon="0.70392">
        <ele>89.6</ele>
        <time>2024-09-10T15:07:56+02:00</time>
      </trkpt>
      <trkpt lat="44.20884" lon="0.70394">
        <ele>88.1</ele>
        <time>2024-09-10T15:07:46+02:00</time>
      </trkpt>
      <trkpt lat="44.20878" lon="0.70407">
        <ele>86.8</ele>
        <time>2024-09-10T15:07:27+02:00</time>
      </trkpt>
      <trkpt lat="44.2088" lon="0.70423">
        <ele>86.6</ele>
        <time>2024-09-10T15:07:17+02:00</time>
      </trkpt>
      <trkpt lat="44.20881" lon="0.70441">
        <ele>86.2</ele>
        <time>2024-09-10T15:07:07+02:00</time>
      </trkpt>
      <trkpt lat="44.20883" lon="0.7046">
        <ele>85.8</ele>
        <time>2024-09-10T15:06:57+02:00</time>
      </trkpt>
      <trkpt lat="44.20889" lon="0.70476">
        <ele>85.9</ele>
        <time>2024-09-10T15:06:47+02:00</time>
      </trkpt>
      <trkpt lat="44.20894" lon="0.70493">
        <ele>86.1</ele>
        <time>2024-09-10T15:06:37+02:00</time>
      </trkpt>
      <trkpt lat="44.20897" lon="0.70512">
        <ele>85.7</ele>
        <time>2024-09-10T15:06:27+02:00</time>
      </trkpt>
      <trkpt lat="44.20897" lon="0.70531">
        <ele>84.6</ele>
        <time>2024-09-10T15:06:17+02:00</time>
      </trkpt>
      <trkpt lat="44.209" lon="0.70547">
        <ele>84.9</ele>
        <time>2024-09-10T15:06:07+02:00</time>
      </trkpt>
      <trkpt lat="44.20901" lon="0.70562">
        <ele>84.4</ele>
        <time>2024-09-10T15:05:57+02:00</time>
      </trkpt>
      <trkpt lat="44.20904" lon="0.7058">
        <ele>83.8</ele>
        <time>2024-09-10T15:05:48+02:00</time>
      </trkpt>
      <trkpt lat="44.20902" lon="0.70596">
        <ele>83.4</ele>
        <time>2024-09-10T15:05:39+02:00</time>
      </trkpt>
      <trkpt lat="44.20894" lon="0.70609">
        <ele>83.1</ele>
        <time>2024-09-10T15:05:29+02:00</time>
      </trkpt>
      <trkpt lat="44.20883" lon="0.70619">
        <ele>82.6</ele>
        <time>2024-09-10T15:05:20+02:00</time>
      </trkpt>
      <trkpt lat="44.20876" lon="0.70635">
        <ele>82.5</ele>
        <time>2024-09-10T15:05:05+02:00</time>
      </trkpt>
      <trkpt lat="44.20872" lon="0.70647">
        <ele>82.7</ele>
        <time>2024-09-10T15:04:55+02:00</time>
      </trkpt>
      <trkpt lat="44.2087" lon="0.70661">
        <ele>82.9</ele>
        <time>2024-09-10T15:04:45+02:00</time>
      </trkpt>
      <trkpt lat="44.20874" lon="0.70678">
        <ele>83.2</ele>
        <time>2024-09-10T15:04:35+02:00</time>
      </trkpt>
      <trkpt lat="44.20874" lon="0.70693">
        <ele>83.5</ele>
        <time>2024-09-10T15:04:26+02:00</time>
      </trkpt>
      <trkpt lat="44.20882" lon="0.70703">
        <ele>83.5</ele>
        <time>2024-09-10T15:03:17+02:00</time>
      </trkpt>
      <trkpt lat="44.20886" lon="0.70716">
        <ele>83.8</ele>
        <time>2024-09-10T15:03:07+02:00</time>
      </trkpt>
      <trkpt lat="44.20894" lon="0.7073">
        <ele>84</ele>
        <time>2024-09-10T15:02:57+02:00</time>
      </trkpt>
      <trkpt lat="44.20904" lon="0.70739">
        <ele>83.7</ele>
        <time>2024-09-10T15:02:47+02:00</time>
      </trkpt>
      <trkpt lat="44.20911" lon="0.70755">
        <ele>83.9</ele>
        <time>2024-09-10T15:02:38+02:00</time>
      </trkpt>
      <trkpt lat="44.20921" lon="0.70763">
        <ele>84.2</ele>
        <time>2024-09-10T15:02:28+02:00</time>
      </trkpt>
      <trkpt lat="44.2093" lon="0.70774">
        <ele>84.3</ele>
        <time>2024-09-10T15:02:19+02:00</time>
      </trkpt>
      <trkpt lat="44.2094" lon="0.70784">
        <ele>84.2</ele>
        <time>2024-09-10T15:02:08+02:00</time>
      </trkpt>
      <trkpt lat="44.20951" lon="0.70788">
        <ele>84.3</ele>
        <time>2024-09-10T15:01:59+02:00</time>
      </trkpt>
      <trkpt lat="44.20963" lon="0.7079">
        <ele>84.7</ele>
        <time>2024-09-10T15:01:50+02:00</time>
      </trkpt>
      <trkpt lat="44.20977" lon="0.70789">
        <ele>84.8</ele>
        <time>2024-09-10T15:01:40+02:00</time>
      </trkpt>
      <trkpt lat="44.20987" lon="0.70789">
        <ele>84.9</ele>
        <time>2024-09-10T15:01:31+02:00</time>
      </trkpt>
      <trkpt lat="44.20998" lon="0.70789">
        <ele>85</ele>
        <time>2024-09-10T15:01:21+02:00</time>
      </trkpt>
      <trkpt lat="44.21009" lon="0.70789">
        <ele>85.1</ele>
        <time>2024-09-10T15:01:12+02:00</time>
      </trkpt>
      <trkpt lat="44.2102" lon="0.7079">
        <ele>85.3</ele>
        <time>2024-09-10T15:01:02+02:00</time>
      </trkpt>
      <trkpt lat="44.21035" lon="0.70794">
        <ele>85.6</ele>
        <time>2024-09-10T15:00:22+02:00</time>
      </trkpt>
      <trkpt lat="44.21044" lon="0.70797">
        <ele>85.7</ele>
        <time>2024-09-10T15:00:13+02:00</time>
      </trkpt>
      <trkpt lat="44.21053" lon="0.7081">
        <ele>86.1</ele>
        <time>2024-09-10T14:59:53+02:00</time>
      </trkpt>
      <trkpt lat="44.21055" lon="0.70822">
        <ele>86.6</ele>
        <time>2024-09-10T14:59:44+02:00</time>
      </trkpt>
      <trkpt lat="44.21058" lon="0.70839">
        <ele>87.5</ele>
        <time>2024-09-10T14:59:34+02:00</time>
      </trkpt>
      <trkpt lat="44.2106" lon="0.70856">
        <ele>88.8</ele>
        <time>2024-09-10T14:59:25+02:00</time>
      </trkpt>
      <trkpt lat="44.2106" lon="0.70872">
        <ele>89.9</ele>
        <time>2024-09-10T14:59:15+02:00</time>
      </trkpt>
      <trkpt lat="44.2106" lon="0.70889">
        <ele>91.2</ele>
        <time>2024-09-10T14:59:06+02:00</time>
      </trkpt>
      <trkpt lat="44.21059" lon="0.70906">
        <ele>92.4</ele>
        <time>2024-09-10T14:58:56+02:00</time>
      </trkpt>
      <trkpt lat="44.21061" lon="0.70919">
        <ele>93.4</ele>
        <time>2024-09-10T14:58:46+02:00</time>
      </trkpt>
      <trkpt lat="44.2106" lon="0.70932">
        <ele>94.8</ele>
        <time>2024-09-10T14:58:22+02:00</time>
      </trkpt>
      <trkpt lat="44.2105" lon="0.70936">
        <ele>95.1</ele>
        <time>2024-09-10T14:58:13+02:00</time>
      </trkpt>
      <trkpt lat="44.2104" lon="0.70941">
        <ele>95.6</ele>
        <time>2024-09-10T14:58:03+02:00</time>
      </trkpt>
      <trkpt lat="44.2103" lon="0.70946">
        <ele>96.1</ele>
        <time>2024-09-10T14:57:54+02:00</time>
      </trkpt>
      <trkpt lat="44.21021" lon="0.70956">
        <ele>97.1</ele>
        <time>2024-09-10T14:57:44+02:00</time>
      </trkpt>
      <trkpt lat="44.21017" lon="0.70969">
        <ele>98.5</ele>
        <time>2024-09-10T14:57:35+02:00</time>
      </trkpt>
      <trkpt lat="44.21015" lon="0.70984">
        <ele>100.1</ele>
        <time>2024-09-10T14:57:25+02:00</time>
      </trkpt>
      <trkpt lat="44.21012" lon="0.70998">
        <ele>101.9</ele>
        <time>2024-09-10T14:57:15+02:00</time>
      </trkpt>
      <trkpt lat="44.21008" lon="0.71012">
        <ele>103.2</ele>
        <time>2024-09-10T14:57:06+02:00</time>
      </trkpt>
      <trkpt lat="44.21002" lon="0.71022">
        <ele>104.4</ele>
        <time>2024-09-10T14:56:57+02:00</time>
      </trkpt>
      <trkpt lat="44.20998" lon="0.71036">
        <ele>105.8</ele>
        <time>2024-09-10T14:56:47+02:00</time>
      </trkpt>
      <trkpt lat="44.20992" lon="0.7105">
        <ele>107.4</ele>
        <time>2024-09-10T14:56:37+02:00</time>
      </trkpt>
      <trkpt lat="44.20984" lon="0.71062">
        <ele>109.2</ele>
        <time>2024-09-10T14:56:28+02:00</time>
      </trkpt>
      <trkpt lat="44.20979" lon="0.71076">
        <ele>110.8</ele>
        <time>2024-09-10T14:56:18+02:00</time>
      </trkpt>
      <trkpt lat="44.20975" lon="0.71095">
        <ele>112.1</ele>
        <time>2024-09-10T14:56:09+02:00</time>
      </trkpt>
      <trkpt lat="44.20963" lon="0.71103">
        <ele>113.9</ele>
        <time>2024-09-10T14:55:54+02:00</time>
      </trkpt>
      <trkpt lat="44.20954" lon="0.71104">
        <ele>115.2</ele>
        <time>2024-09-10T14:55:45+02:00</time>
      </trkpt>
      <trkpt lat="44.20941" lon="0.71106">
        <ele>117.1</ele>
        <time>2024-09-10T14:55:35+02:00</time>
      </trkpt>
      <trkpt lat="44.20932" lon="0.71108">
        <ele>118.5</ele>
        <time>2024-09-10T14:55:21+02:00</time>
      </trkpt>
      <trkpt lat="44.20922" lon="0.71109">
        <ele>119.9</ele>
        <time>2024-09-10T14:55:12+02:00</time>
      </trkpt>
      <trkpt lat="44.20913" lon="0.71112">
        <ele>121.1</ele>
        <time>2024-09-10T14:55:02+02:00</time>
      </trkpt>
      <trkpt lat="44.20904" lon="0.71119">
        <ele>121.8</ele>
        <time>2024-09-10T14:54:53+02:00</time>
      </trkpt>
      <trkpt lat="44.20893" lon="0.71129">
        <ele>123.5</ele>
        <time>2024-09-10T14:54:43+02:00</time>
      </trkpt>
      <trkpt lat="44.20885" lon="0.71134">
        <ele>124.9</ele>
        <time>2024-09-10T14:54:33+02:00</time>
      </trkpt>
      <trkpt lat="44.20872" lon="0.71143">
        <ele>127.2</ele>
        <time>2024-09-10T14:54:18+02:00</time>
      </trkpt>
      <trkpt lat="44.20859" lon="0.71155">
        <ele>130</ele>
        <time>2024-09-10T14:54:03+02:00</time>
      </trkpt>
      <trkpt lat="44.20851" lon="0.71163">
        <ele>132.4</ele>
        <time>2024-09-10T14:53:54+02:00</time>
      </trkpt>
      <trkpt lat="44.20838" lon="0.71168">
        <ele>135.2</ele>
        <time>2024-09-10T14:53:40+02:00</time>
      </trkpt>
      <trkpt lat="44.2083" lon="0.71186">
        <ele>138.2</ele>
        <time>2024-09-10T14:53:25+02:00</time>
      </trkpt>
      <trkpt lat="44.20826" lon="0.71198">
        <ele>140.8</ele>
        <time>2024-09-10T14:53:15+02:00</time>
      </trkpt>
      <trkpt lat="44.20824" lon="0.71215">
        <ele>141.9</ele>
        <time>2024-09-10T14:53:01+02:00</time>
      </trkpt>
      <trkpt lat="44.20822" lon="0.7123">
        <ele>143.4</ele>
        <time>2024-09-10T14:52:51+02:00</time>
      </trkpt>
      <trkpt lat="44.20818" lon="0.71249">
        <ele>145.5</ele>
        <time>2024-09-10T14:52:37+02:00</time>
      </trkpt>
      <trkpt lat="44.20811" lon="0.71267">
        <ele>148.5</ele>
        <time>2024-09-10T14:52:27+02:00</time>
      </trkpt>
      <trkpt lat="44.20807" lon="0.7128">
        <ele>150.3</ele>
        <time>2024-09-10T14:52:17+02:00</time>
      </trkpt>
      <trkpt lat="44.20803" lon="0.71291">
        <ele>150.5</ele>
        <time>2024-09-10T14:52:08+02:00</time>
      </trkpt>
      <trkpt lat="44.208" lon="0.71306">
        <ele>150.1</ele>
        <time>2024-09-10T14:51:58+02:00</time>
      </trkpt>
      <trkpt lat="44.20795" lon="0.71322">
        <ele>150.2</ele>
        <time>2024-09-10T14:51:49+02:00</time>
      </trkpt>
      <trkpt lat="44.20787" lon="0.71332">
        <ele>151.9</ele>
        <time>2024-09-10T14:51:39+02:00</time>
      </trkpt>
      <trkpt lat="44.20779" lon="0.71343">
        <ele>154.7</ele>
        <time>2024-09-10T14:51:30+02:00</time>
      </trkpt>
      <trkpt lat="44.20772" lon="0.71354">
        <ele>155.6</ele>
        <time>2024-09-10T14:51:20+02:00</time>
      </trkpt>
      <trkpt lat="44.20763" lon="0.7137">
        <ele>156.4</ele>
        <time>2024-09-10T14:51:10+02:00</time>
      </trkpt>
      <trkpt lat="44.20756" lon="0.71382">
        <ele>157.1</ele>
        <time>2024-09-10T14:50:01+02:00</time>
      </trkpt>
      <trkpt lat="44.20749" lon="0.71396">
        <ele>157.8</ele>
        <time>2024-09-10T14:49:47+02:00</time>
      </trkpt>
      <trkpt lat="44.2074" lon="0.71412">
        <ele>158.2</ele>
        <time>2024-09-10T14:49:32+02:00</time>
      </trkpt>
      <trkpt lat="44.20736" lon="0.71425">
        <ele>158.4</ele>
        <time>2024-09-10T14:49:22+02:00</time>
      </trkpt>
      <trkpt lat="44.20726" lon="0.71439">
        <ele>159.4</ele>
        <time>2024-09-10T14:49:08+02:00</time>
      </trkpt>
      <trkpt lat="44.20721" lon="0.71454">
        <ele>159.8</ele>
        <time>2024-09-10T14:48:53+02:00</time>
      </trkpt>
      <trkpt lat="44.20715" lon="0.71466">
        <ele>160</ele>
        <time>2024-09-10T14:48:34+02:00</time>
      </trkpt>
      <trkpt lat="44.20709" lon="0.71477">
        <ele>160.2</ele>
        <time>2024-09-10T14:45:49+02:00</time>
      </trkpt>
      <trkpt lat="44.20702" lon="0.71489">
        <ele>160.1</ele>
        <time>2024-09-10T14:45:39+02:00</time>
      </trkpt>
      <trkpt lat="44.20692" lon="0.71496">
        <ele>160.6</ele>
        <time>2024-09-10T14:45:29+02:00</time>
      </trkpt>
      <trkpt lat="44.20681" lon="0.71508">
        <ele>161.2</ele>
        <time>2024-09-10T14:45:19+02:00</time>
      </trkpt>
      <trkpt lat="44.20673" lon="0.71526">
        <ele>161.4</ele>
        <time>2024-09-10T14:45:05+02:00</time>
      </trkpt>
      <trkpt lat="44.20666" lon="0.7154">
        <ele>161.6</ele>
        <time>2024-09-10T14:44:55+02:00</time>
      </trkpt>
      <trkpt lat="44.20659" lon="0.7155">
        <ele>161.4</ele>
        <time>2024-09-10T14:44:45+02:00</time>
      </trkpt>
      <trkpt lat="44.20649" lon="0.71558">
        <ele>161.6</ele>
        <time>2024-09-10T14:44:36+02:00</time>
      </trkpt>
      <trkpt lat="44.20639" lon="0.71567">
        <ele>162</ele>
        <time>2024-09-10T14:44:27+02:00</time>
      </trkpt>
      <trkpt lat="44.20628" lon="0.71576">
        <ele>161.8</ele>
        <time>2024-09-10T14:44:18+02:00</time>
      </trkpt>
      <trkpt lat="44.20619" lon="0.71583">
        <ele>162</ele>
        <time>2024-09-10T14:44:08+02:00</time>
      </trkpt>
      <trkpt lat="44.20606" lon="0.71589">
        <ele>161.9</ele>
        <time>2024-09-10T14:43:55+02:00</time>
      </trkpt>
      <trkpt lat="44.20596" lon="0.71596">
        <ele>161.9</ele>
        <time>2024-09-10T14:43:45+02:00</time>
      </trkpt>
      <trkpt lat="44.20586" lon="0.71601">
        <ele>162</ele>
        <time>2024-09-10T14:43:35+02:00</time>
      </trkpt>
      <trkpt lat="44.20576" lon="0.71605">
        <ele>161.9</ele>
        <time>2024-09-10T14:43:26+02:00</time>
      </trkpt>
      <trkpt lat="44.20567" lon="0.71606">
        <ele>161.5</ele>
        <time>2024-09-10T14:43:16+02:00</time>
      </trkpt>
      <trkpt lat="44.20556" lon="0.71608">
        <ele>160.9</ele>
        <time>2024-09-10T14:43:07+02:00</time>
      </trkpt>
      <trkpt lat="44.20546" lon="0.71608">
        <ele>160.5</ele>
        <time>2024-09-10T14:41:54+02:00</time>
      </trkpt>
      <trkpt lat="44.2054" lon="0.71603">
        <ele>160.1</ele>
        <time>2024-09-10T14:41:28+02:00</time>
      </trkpt>
      <trkpt lat="44.20536" lon="0.7159">
        <ele>159.5</ele>
        <time>2024-09-10T14:41:18+02:00</time>
      </trkpt>
      <trkpt lat="44.20529" lon="0.71577">
        <ele>158.8</ele>
        <time>2024-09-10T14:41:09+02:00</time>
      </trkpt>
      <trkpt lat="44.20525" lon="0.71565">
        <ele>158.3</ele>
        <time>2024-09-10T14:40:59+02:00</time>
      </trkpt>
      <trkpt lat="44.20517" lon="0.71549">
        <ele>157.9</ele>
        <time>2024-09-10T14:40:49+02:00</time>
      </trkpt>
      <trkpt lat="44.20511" lon="0.71535">
        <ele>157.6</ele>
        <time>2024-09-10T14:40:40+02:00</time>
      </trkpt>
      <trkpt lat="44.20505" lon="0.71522">
        <ele>157</ele>
        <time>2024-09-10T14:40:30+02:00</time>
      </trkpt>
      <trkpt lat="44.20499" lon="0.71512">
        <ele>156.4</ele>
        <time>2024-09-10T14:40:21+02:00</time>
      </trkpt>
      <trkpt lat="44.20492" lon="0.71501">
        <ele>156</ele>
        <time>2024-09-10T14:40:11+02:00</time>
      </trkpt>
      <trkpt lat="44.20485" lon="0.71489">
        <ele>155.6</ele>
        <time>2024-09-10T14:40:01+02:00</time>
      </trkpt>
      <trkpt lat="44.20481" lon="0.71469">
        <ele>154.9</ele>
        <time>2024-09-10T14:39:51+02:00</time>
      </trkpt>
      <trkpt lat="44.20476" lon="0.71455">
        <ele>154.4</ele>
        <time>2024-09-10T14:39:41+02:00</time>
      </trkpt>
      <trkpt lat="44.2047" lon="0.7144">
        <ele>154</ele>
        <time>2024-09-10T14:39:31+02:00</time>
      </trkpt>
      <trkpt lat="44.20469" lon="0.71426">
        <ele>153.9</ele>
        <time>2024-09-10T14:39:22+02:00</time>
      </trkpt>
      <trkpt lat="44.20469" lon="0.7141">
        <ele>153.7</ele>
        <time>2024-09-10T14:39:12+02:00</time>
      </trkpt>
      <trkpt lat="44.20466" lon="0.71396">
        <ele>153.2</ele>
        <time>2024-09-10T14:39:03+02:00</time>
      </trkpt>
      <trkpt lat="44.20461" lon="0.71384">
        <ele>152.8</ele>
        <time>2024-09-10T14:38:54+02:00</time>
      </trkpt>
      <trkpt lat="44.20453" lon="0.71368">
        <ele>152.3</ele>
        <time>2024-09-10T14:38:44+02:00</time>
      </trkpt>
      <trkpt lat="44.20446" lon="0.71356">
        <ele>152</ele>
        <time>2024-09-10T14:38:35+02:00</time>
      </trkpt>
      <trkpt lat="44.20442" lon="0.71345">
        <ele>152.1</ele>
        <time>2024-09-10T14:38:26+02:00</time>
      </trkpt>
      <trkpt lat="44.20435" lon="0.71333">
        <ele>152.3</ele>
        <time>2024-09-10T14:38:16+02:00</time>
      </trkpt>
      <trkpt lat="44.20425" lon="0.71321">
        <ele>152.1</ele>
        <time>2024-09-10T14:38:06+02:00</time>
      </trkpt>
      <trkpt lat="44.20419" lon="0.7131">
        <ele>152</ele>
        <time>2024-09-10T14:37:56+02:00</time>
      </trkpt>
      <trkpt lat="44.20412" lon="0.713">
        <ele>152</ele>
        <time>2024-09-10T14:37:47+02:00</time>
      </trkpt>
      <trkpt lat="44.20402" lon="0.71285">
        <ele>152.4</ele>
        <time>2024-09-10T14:37:33+02:00</time>
      </trkpt>
      <trkpt lat="44.20397" lon="0.71274">
        <ele>152.7</ele>
        <time>2024-09-10T14:37:23+02:00</time>
      </trkpt>
      <trkpt lat="44.20391" lon="0.7126">
        <ele>152.9</ele>
        <time>2024-09-10T14:37:13+02:00</time>
      </trkpt>
      <trkpt lat="44.20384" lon="0.71245">
        <ele>153.2</ele>
        <time>2024-09-10T14:37:04+02:00</time>
      </trkpt>
      <trkpt lat="44.20378" lon="0.71233">
        <ele>153.6</ele>
        <time>2024-09-10T14:36:55+02:00</time>
      </trkpt>
      <trkpt lat="44.20371" lon="0.71223">
        <ele>154</ele>
        <time>2024-09-10T14:36:45+02:00</time>
      </trkpt>
      <trkpt lat="44.2036" lon="0.7121">
        <ele>154.4</ele>
        <time>2024-09-10T14:36:35+02:00</time>
      </trkpt>
      <trkpt lat="44.2035" lon="0.71193">
        <ele>155.5</ele>
        <time>2024-09-10T14:36:21+02:00</time>
      </trkpt>
      <trkpt lat="44.2034" lon="0.71183">
        <ele>156.2</ele>
        <time>2024-09-10T14:36:11+02:00</time>
      </trkpt>
      <trkpt lat="44.20327" lon="0.71172">
        <ele>156.8</ele>
        <time>2024-09-10T14:35:51+02:00</time>
      </trkpt>
      <trkpt lat="44.20318" lon="0.71165">
        <ele>157.1</ele>
        <time>2024-09-10T14:35:41+02:00</time>
      </trkpt>
      <trkpt lat="44.20307" lon="0.71155">
        <ele>157.8</ele>
        <time>2024-09-10T14:35:22+02:00</time>
      </trkpt>
      <trkpt lat="44.20299" lon="0.71147">
        <ele>158.6</ele>
        <time>2024-09-10T14:35:13+02:00</time>
      </trkpt>
      <trkpt lat="44.20292" lon="0.71138">
        <ele>159</ele>
        <time>2024-09-10T14:35:02+02:00</time>
      </trkpt>
      <trkpt lat="44.20283" lon="0.71129">
        <ele>159.2</ele>
        <time>2024-09-10T14:34:52+02:00</time>
      </trkpt>
      <trkpt lat="44.20274" lon="0.71116">
        <ele>159.8</ele>
        <time>2024-09-10T14:34:42+02:00</time>
      </trkpt>
      <trkpt lat="44.20266" lon="0.71102">
        <ele>160.1</ele>
        <time>2024-09-10T14:34:32+02:00</time>
      </trkpt>
      <trkpt lat="44.20259" lon="0.71087">
        <ele>160.6</ele>
        <time>2024-09-10T14:34:23+02:00</time>
      </trkpt>
      <trkpt lat="44.20251" lon="0.71079">
        <ele>161.1</ele>
        <time>2024-09-10T14:34:13+02:00</time>
      </trkpt>
      <trkpt lat="44.20243" lon="0.71067">
        <ele>161.7</ele>
        <time>2024-09-10T14:34:03+02:00</time>
      </trkpt>
      <trkpt lat="44.20237" lon="0.71055">
        <ele>162</ele>
        <time>2024-09-10T14:33:53+02:00</time>
      </trkpt>
      <trkpt lat="44.20227" lon="0.71048">
        <ele>162.2</ele>
        <time>2024-09-10T14:33:44+02:00</time>
      </trkpt>
      <trkpt lat="44.2022" lon="0.71034">
        <ele>162.6</ele>
        <time>2024-09-10T14:33:29+02:00</time>
      </trkpt>
      <trkpt lat="44.20208" lon="0.71021">
        <ele>162.1</ele>
        <time>2024-09-10T14:33:20+02:00</time>
      </trkpt>
      <trkpt lat="44.20199" lon="0.71016">
        <ele>161.7</ele>
        <time>2024-09-10T14:33:10+02:00</time>
      </trkpt>
      <trkpt lat="44.20187" lon="0.71009">
        <ele>161.2</ele>
        <time>2024-09-10T14:33:01+02:00</time>
      </trkpt>
      <trkpt lat="44.20178" lon="0.70998">
        <ele>160.8</ele>
        <time>2024-09-10T14:32:50+02:00</time>
      </trkpt>
      <trkpt lat="44.2017" lon="0.70985">
        <ele>160.3</ele>
        <time>2024-09-10T14:32:40+02:00</time>
      </trkpt>
      <trkpt lat="44.20165" lon="0.70971">
        <ele>159.9</ele>
        <time>2024-09-10T14:32:31+02:00</time>
      </trkpt>
      <trkpt lat="44.20159" lon="0.70958">
        <ele>159.6</ele>
        <time>2024-09-10T14:32:21+02:00</time>
      </trkpt>
      <trkpt lat="44.20153" lon="0.70944">
        <ele>159</ele>
        <time>2024-09-10T14:32:12+02:00</time>
      </trkpt>
      <trkpt lat="44.20149" lon="0.70932">
        <ele>158.6</ele>
        <time>2024-09-10T14:32:03+02:00</time>
      </trkpt>
      <trkpt lat="44.20141" lon="0.70919">
        <ele>158.1</ele>
        <time>2024-09-10T14:31:53+02:00</time>
      </trkpt>
      <trkpt lat="44.20134" lon="0.70905">
        <ele>157.8</ele>
        <time>2024-09-10T14:31:43+02:00</time>
      </trkpt>
      <trkpt lat="44.20126" lon="0.70894">
        <ele>157.5</ele>
        <time>2024-09-10T14:31:33+02:00</time>
      </trkpt>
      <trkpt lat="44.20118" lon="0.70883">
        <ele>157.2</ele>
        <time>2024-09-10T14:31:24+02:00</time>
      </trkpt>
      <trkpt lat="44.20108" lon="0.70873">
        <ele>156.7</ele>
        <time>2024-09-10T14:31:14+02:00</time>
      </trkpt>
      <trkpt lat="44.20097" lon="0.70859">
        <ele>156</ele>
        <time>2024-09-10T14:31:04+02:00</time>
      </trkpt>
      <trkpt lat="44.20094" lon="0.70842">
        <ele>156.2</ele>
        <time>2024-09-10T14:30:50+02:00</time>
      </trkpt>
      <trkpt lat="44.20087" lon="0.70831">
        <ele>156.1</ele>
        <time>2024-09-10T14:30:41+02:00</time>
      </trkpt>
      <trkpt lat="44.20082" lon="0.70819">
        <ele>155.9</ele>
        <time>2024-09-10T14:30:31+02:00</time>
      </trkpt>
      <trkpt lat="44.20073" lon="0.70805">
        <ele>155.6</ele>
        <time>2024-09-10T14:30:21+02:00</time>
      </trkpt>
      <trkpt lat="44.20066" lon="0.70794">
        <ele>155.2</ele>
        <time>2024-09-10T14:30:12+02:00</time>
      </trkpt>
      <trkpt lat="44.20059" lon="0.70783">
        <ele>155</ele>
        <time>2024-09-10T14:30:03+02:00</time>
      </trkpt>
      <trkpt lat="44.2005" lon="0.70771">
        <ele>155</ele>
        <time>2024-09-10T14:29:54+02:00</time>
      </trkpt>
      <trkpt lat="44.20045" lon="0.70759">
        <ele>155</ele>
        <time>2024-09-10T14:29:44+02:00</time>
      </trkpt>
      <trkpt lat="44.20037" lon="0.70744">
        <ele>154.7</ele>
        <time>2024-09-10T14:29:29+02:00</time>
      </trkpt>
      <trkpt lat="44.20029" lon="0.70734">
        <ele>154.4</ele>
        <time>2024-09-10T14:29:20+02:00</time>
      </trkpt>
      <trkpt lat="44.20022" lon="0.70725">
        <ele>154.3</ele>
        <time>2024-09-10T14:29:10+02:00</time>
      </trkpt>
      <trkpt lat="44.20013" lon="0.70718">
        <ele>154.4</ele>
        <time>2024-09-10T14:29:00+02:00</time>
      </trkpt>
      <trkpt lat="44.20002" lon="0.70707">
        <ele>154.4</ele>
        <time>2024-09-10T14:28:51+02:00</time>
      </trkpt>
      <trkpt lat="44.19992" lon="0.70699">
        <ele>154.3</ele>
        <time>2024-09-10T14:28:41+02:00</time>
      </trkpt>
      <trkpt lat="44.19982" lon="0.70691">
        <ele>154.5</ele>
        <time>2024-09-10T14:28:32+02:00</time>
      </trkpt>
      <trkpt lat="44.19972" lon="0.70685">
        <ele>154.7</ele>
        <time>2024-09-10T14:28:22+02:00</time>
      </trkpt>
      <trkpt lat="44.19962" lon="0.70676">
        <ele>154.5</ele>
        <time>2024-09-10T14:28:12+02:00</time>
      </trkpt>
      <trkpt lat="44.19952" lon="0.70671">
        <ele>154.7</ele>
        <time>2024-09-10T14:28:03+02:00</time>
      </trkpt>
      <trkpt lat="44.19941" lon="0.70663">
        <ele>154.9</ele>
        <time>2024-09-10T14:27:53+02:00</time>
      </trkpt>
      <trkpt lat="44.19932" lon="0.70659">
        <ele>154.8</ele>
        <time>2024-09-10T14:27:43+02:00</time>
      </trkpt>
      <trkpt lat="44.19919" lon="0.70656">
        <ele>155</ele>
        <time>2024-09-10T14:27:34+02:00</time>
      </trkpt>
      <trkpt lat="44.19906" lon="0.70651">
        <ele>155</ele>
        <time>2024-09-10T14:27:24+02:00</time>
      </trkpt>
      <trkpt lat="44.19895" lon="0.70647">
        <ele>155.3</ele>
        <time>2024-09-10T14:27:15+02:00</time>
      </trkpt>
      <trkpt lat="44.19885" lon="0.70644">
        <ele>155.6</ele>
        <time>2024-09-10T14:27:06+02:00</time>
      </trkpt>
      <trkpt lat="44.19876" lon="0.70639">
        <ele>156</ele>
        <time>2024-09-10T14:26:56+02:00</time>
      </trkpt>
      <trkpt lat="44.19863" lon="0.70633">
        <ele>156.2</ele>
        <time>2024-09-10T14:26:42+02:00</time>
      </trkpt>
      <trkpt lat="44.19854" lon="0.70631">
        <ele>156.4</ele>
        <time>2024-09-10T14:26:32+02:00</time>
      </trkpt>
      <trkpt lat="44.19843" lon="0.70629">
        <ele>156.6</ele>
        <time>2024-09-10T14:26:22+02:00</time>
      </trkpt>
      <trkpt lat="44.19831" lon="0.70629">
        <ele>156.8</ele>
        <time>2024-09-10T14:26:13+02:00</time>
      </trkpt>
      <trkpt lat="44.1982" lon="0.70632">
        <ele>157</ele>
        <time>2024-09-10T14:26:03+02:00</time>
      </trkpt>
      <trkpt lat="44.19811" lon="0.70638">
        <ele>156.9</ele>
        <time>2024-09-10T14:25:53+02:00</time>
      </trkpt>
      <trkpt lat="44.19797" lon="0.70634">
        <ele>157.3</ele>
        <time>2024-09-10T14:25:29+02:00</time>
      </trkpt>
      <trkpt lat="44.19794" lon="0.70618">
        <ele>158.2</ele>
        <time>2024-09-10T14:25:20+02:00</time>
      </trkpt>
      <trkpt lat="44.19786" lon="0.706">
        <ele>158.3</ele>
        <time>2024-09-10T14:24:55+02:00</time>
      </trkpt>
      <trkpt lat="44.19782" lon="0.70588">
        <ele>158.1</ele>
        <time>2024-09-10T14:24:46+02:00</time>
      </trkpt>
      <trkpt lat="44.19777" lon="0.70574">
        <ele>158</ele>
        <time>2024-09-10T14:24:36+02:00</time>
      </trkpt>
      <trkpt lat="44.1977" lon="0.70562">
        <ele>157.5</ele>
        <time>2024-09-10T14:24:27+02:00</time>
      </trkpt>
      <trkpt lat="44.19764" lon="0.70549">
        <ele>156.7</ele>
        <time>2024-09-10T14:24:17+02:00</time>
      </trkpt>
      <trkpt lat="44.19758" lon="0.70535">
        <ele>155.6</ele>
        <time>2024-09-10T14:24:07+02:00</time>
      </trkpt>
      <trkpt lat="44.19751" lon="0.70523">
        <ele>154.7</ele>
        <time>2024-09-10T14:23:58+02:00</time>
      </trkpt>
      <trkpt lat="44.19744" lon="0.7051">
        <ele>153.5</ele>
        <time>2024-09-10T14:23:49+02:00</time>
      </trkpt>
      <trkpt lat="44.19739" lon="0.70498">
        <ele>152.5</ele>
        <time>2024-09-10T14:23:39+02:00</time>
      </trkpt>
      <trkpt lat="44.19733" lon="0.70485">
        <ele>151.6</ele>
        <time>2024-09-10T14:23:29+02:00</time>
      </trkpt>
      <trkpt lat="44.19726" lon="0.70474">
        <ele>151.1</ele>
        <time>2024-09-10T14:23:20+02:00</time>
      </trkpt>
      <trkpt lat="44.19719" lon="0.7046">
        <ele>149.4</ele>
        <time>2024-09-10T14:23:10+02:00</time>
      </trkpt>
      <trkpt lat="44.1971" lon="0.70451">
        <ele>147.2</ele>
        <time>2024-09-10T14:23:01+02:00</time>
      </trkpt>
      <trkpt lat="44.19699" lon="0.70453">
        <ele>146.4</ele>
        <time>2024-09-10T14:22:51+02:00</time>
      </trkpt>
      <trkpt lat="44.19687" lon="0.70454">
        <ele>145.8</ele>
        <time>2024-09-10T14:22:41+02:00</time>
      </trkpt>
      <trkpt lat="44.19675" lon="0.70458">
        <ele>146.1</ele>
        <time>2024-09-10T14:22:32+02:00</time>
      </trkpt>
      <trkpt lat="44.19663" lon="0.70457">
        <ele>145.8</ele>
        <time>2024-09-10T14:22:23+02:00</time>
      </trkpt>
      <trkpt lat="44.19653" lon="0.70455">
        <ele>145.9</ele>
        <time>2024-09-10T14:22:14+02:00</time>
      </trkpt>
      <trkpt lat="44.19644" lon="0.70451">
        <ele>145.7</ele>
        <time>2024-09-10T14:22:04+02:00</time>
      </trkpt>
      <trkpt lat="44.19634" lon="0.70446">
        <ele>145.8</ele>
        <time>2024-09-10T14:21:55+02:00</time>
      </trkpt>
      <trkpt lat="44.1962" lon="0.70435">
        <ele>144.7</ele>
        <time>2024-09-10T14:21:41+02:00</time>
      </trkpt>
      <trkpt lat="44.19611" lon="0.7043">
        <ele>144.7</ele>
        <time>2024-09-10T14:21:11+02:00</time>
      </trkpt>
      <trkpt lat="44.19604" lon="0.70419">
        <ele>143.8</ele>
        <time>2024-09-10T14:20:51+02:00</time>
      </trkpt>
      <trkpt lat="44.19595" lon="0.70411">
        <ele>144.3</ele>
        <time>2024-09-10T14:20:32+02:00</time>
      </trkpt>
      <trkpt lat="44.19586" lon="0.70409">
        <ele>146.2</ele>
        <time>2024-09-10T14:20:13+02:00</time>
      </trkpt>
      <trkpt lat="44.19577" lon="0.70403">
        <ele>146</ele>
        <time>2024-09-10T14:20:02+02:00</time>
      </trkpt>
      <trkpt lat="44.1957" lon="0.70392">
        <ele>145.1</ele>
        <time>2024-09-10T14:19:27+02:00</time>
      </trkpt>
      <trkpt lat="44.19564" lon="0.70382">
        <ele>144.4</ele>
        <time>2024-09-10T14:19:17+02:00</time>
      </trkpt>
      <trkpt lat="44.1956" lon="0.70368">
        <ele>144</ele>
        <time>2024-09-10T14:19:08+02:00</time>
      </trkpt>
      <trkpt lat="44.19558" lon="0.70351">
        <ele>143.9</ele>
        <time>2024-09-10T14:18:58+02:00</time>
      </trkpt>
      <trkpt lat="44.19555" lon="0.70327">
        <ele>144</ele>
        <time>2024-09-10T14:18:44+02:00</time>
      </trkpt>
      <trkpt lat="44.19558" lon="0.70311">
        <ele>143.8</ele>
        <time>2024-09-10T14:18:34+02:00</time>
      </trkpt>
      <trkpt lat="44.19558" lon="0.70295">
        <ele>143.8</ele>
        <time>2024-09-10T14:18:25+02:00</time>
      </trkpt>
      <trkpt lat="44.19554" lon="0.7028">
        <ele>143.7</ele>
        <time>2024-09-10T14:18:15+02:00</time>
      </trkpt>
      <trkpt lat="44.19544" lon="0.70261">
        <ele>143.1</ele>
        <time>2024-09-10T14:18:01+02:00</time>
      </trkpt>
      <trkpt lat="44.19539" lon="0.70251">
        <ele>143.1</ele>
        <time>2024-09-10T14:17:51+02:00</time>
      </trkpt>
      <trkpt lat="44.19531" lon="0.70236">
        <ele>142.8</ele>
        <time>2024-09-10T14:17:27+02:00</time>
      </trkpt>
      <trkpt lat="44.19526" lon="0.70223">
        <ele>142.7</ele>
        <time>2024-09-10T14:17:17+02:00</time>
      </trkpt>
      <trkpt lat="44.19517" lon="0.70212">
        <ele>142.5</ele>
        <time>2024-09-10T14:17:08+02:00</time>
      </trkpt>
      <trkpt lat="44.19503" lon="0.7021">
        <ele>141.1</ele>
        <time>2024-09-10T14:16:58+02:00</time>
      </trkpt>
      <trkpt lat="44.19493" lon="0.70207">
        <ele>140.7</ele>
        <time>2024-09-10T14:16:49+02:00</time>
      </trkpt>
      <trkpt lat="44.19483" lon="0.70203">
        <ele>140.6</ele>
        <time>2024-09-10T14:16:39+02:00</time>
      </trkpt>
      <trkpt lat="44.19469" lon="0.70202">
        <ele>139.7</ele>
        <time>2024-09-10T14:16:29+02:00</time>
      </trkpt>
      <trkpt lat="44.19459" lon="0.70199">
        <ele>139.1</ele>
        <time>2024-09-10T14:16:20+02:00</time>
      </trkpt>
      <trkpt lat="44.19446" lon="0.70196">
        <ele>138</ele>
        <time>2024-09-10T14:16:06+02:00</time>
      </trkpt>
      <trkpt lat="44.19435" lon="0.70196">
        <ele>136.5</ele>
        <time>2024-09-10T14:15:41+02:00</time>
      </trkpt>
      <trkpt lat="44.19424" lon="0.70194">
        <ele>135</ele>
        <time>2024-09-10T14:15:32+02:00</time>
      </trkpt>
      <trkpt lat="44.19413" lon="0.70193">
        <ele>133.7</ele>
        <time>2024-09-10T14:15:22+02:00</time>
      </trkpt>
      <trkpt lat="44.19401" lon="0.70191">
        <ele>133</ele>
        <time>2024-09-10T14:15:12+02:00</time>
      </trkpt>
      <trkpt lat="44.1939" lon="0.70188">
        <ele>132.3</ele>
        <time>2024-09-10T14:15:03+02:00</time>
      </trkpt>
      <trkpt lat="44.1938" lon="0.70186">
        <ele>132</ele>
        <time>2024-09-10T14:14:45+02:00</time>
      </trkpt>
      <trkpt lat="44.1937" lon="0.70182">
        <ele>131.9</ele>
        <time>2024-09-10T14:14:35+02:00</time>
      </trkpt>
      <trkpt lat="44.19359" lon="0.70177">
        <ele>132.1</ele>
        <time>2024-09-10T14:14:26+02:00</time>
      </trkpt>
      <trkpt lat="44.19347" lon="0.70173">
        <ele>133.1</ele>
        <time>2024-09-10T14:14:16+02:00</time>
      </trkpt>
      <trkpt lat="44.19337" lon="0.70168">
        <ele>134.5</ele>
        <time>2024-09-10T14:14:07+02:00</time>
      </trkpt>
      <trkpt lat="44.19325" lon="0.70163">
        <ele>136.1</ele>
        <time>2024-09-10T14:13:57+02:00</time>
      </trkpt>
      <trkpt lat="44.19315" lon="0.70161">
        <ele>137.8</ele>
        <time>2024-09-10T14:13:47+02:00</time>
      </trkpt>
      <trkpt lat="44.19305" lon="0.70158">
        <ele>140</ele>
        <time>2024-09-10T14:13:38+02:00</time>
      </trkpt>
      <trkpt lat="44.19296" lon="0.70154">
        <ele>141.6</ele>
        <time>2024-09-10T14:13:28+02:00</time>
      </trkpt>
      <trkpt lat="44.19285" lon="0.70151">
        <ele>143.2</ele>
        <time>2024-09-10T14:13:18+02:00</time>
      </trkpt>
      <trkpt lat="44.19277" lon="0.70147">
        <ele>144.7</ele>
        <time>2024-09-10T14:13:08+02:00</time>
      </trkpt>
      <trkpt lat="44.19268" lon="0.70139">
        <ele>147.1</ele>
        <time>2024-09-10T14:12:53+02:00</time>
      </trkpt>
      <trkpt lat="44.19256" lon="0.70142">
        <ele>147.9</ele>
        <time>2024-09-10T14:12:39+02:00</time>
      </trkpt>
      <trkpt lat="44.19248" lon="0.70152">
        <ele>147.8</ele>
        <time>2024-09-10T14:12:29+02:00</time>
      </trkpt>
      <trkpt lat="44.19241" lon="0.7016">
        <ele>147.9</ele>
        <time>2024-09-10T14:12:20+02:00</time>
      </trkpt>
      <trkpt lat="44.1923" lon="0.70166">
        <ele>148.9</ele>
        <time>2024-09-10T14:12:11+02:00</time>
      </trkpt>
      <trkpt lat="44.19222" lon="0.70179">
        <ele>148.3</ele>
        <time>2024-09-10T14:12:00+02:00</time>
      </trkpt>
      <trkpt lat="44.19213" lon="0.70192">
        <ele>147.6</ele>
        <time>2024-09-10T14:11:50+02:00</time>
      </trkpt>
      <trkpt lat="44.19204" lon="0.702">
        <ele>147.6</ele>
        <time>2024-09-10T14:11:41+02:00</time>
      </trkpt>
      <trkpt lat="44.19196" lon="0.70211">
        <ele>147.8</ele>
        <time>2024-09-10T14:11:31+02:00</time>
      </trkpt>
      <trkpt lat="44.19188" lon="0.70219">
        <ele>148.3</ele>
        <time>2024-09-10T14:11:22+02:00</time>
      </trkpt>
      <trkpt lat="44.1918" lon="0.70226">
        <ele>148.6</ele>
        <time>2024-09-10T14:11:13+02:00</time>
      </trkpt>
      <trkpt lat="44.19171" lon="0.70235">
        <ele>148.8</ele>
        <time>2024-09-10T14:11:03+02:00</time>
      </trkpt>
      <trkpt lat="44.19162" lon="0.70243">
        <ele>149</ele>
        <time>2024-09-10T14:10:54+02:00</time>
      </trkpt>
      <trkpt lat="44.19154" lon="0.70254">
        <ele>148.3</ele>
        <time>2024-09-10T14:10:45+02:00</time>
      </trkpt>
      <trkpt lat="44.19145" lon="0.70263">
        <ele>148.5</ele>
        <time>2024-09-10T14:10:35+02:00</time>
      </trkpt>
      <trkpt lat="44.19135" lon="0.70267">
        <ele>149.4</ele>
        <time>2024-09-10T14:10:26+02:00</time>
      </trkpt>
      <trkpt lat="44.19126" lon="0.70262">
        <ele>149.6</ele>
        <time>2024-09-10T14:10:16+02:00</time>
      </trkpt>
      <trkpt lat="44.19116" lon="0.70259">
        <ele>149.7</ele>
        <time>2024-09-10T14:10:07+02:00</time>
      </trkpt>
      <trkpt lat="44.19106" lon="0.70257">
        <ele>149.4</ele>
        <time>2024-09-10T14:09:57+02:00</time>
      </trkpt>
      <trkpt lat="44.19095" lon="0.70252">
        <ele>148.8</ele>
        <time>2024-09-10T14:09:48+02:00</time>
      </trkpt>
      <trkpt lat="44.19087" lon="0.70239">
        <ele>148.3</ele>
        <time>2024-09-10T14:09:38+02:00</time>
      </trkpt>
      <trkpt lat="44.19083" lon="0.70223">
        <ele>147.7</ele>
        <time>2024-09-10T14:09:28+02:00</time>
      </trkpt>
      <trkpt lat="44.19081" lon="0.70207">
        <ele>147.1</ele>
        <time>2024-09-10T14:09:19+02:00</time>
      </trkpt>
      <trkpt lat="44.1908" lon="0.70194">
        <ele>146.7</ele>
        <time>2024-09-10T14:09:10+02:00</time>
      </trkpt>
      <trkpt lat="44.19081" lon="0.70179">
        <ele>147.5</ele>
        <time>2024-09-10T14:09:00+02:00</time>
      </trkpt>
      <trkpt lat="44.19081" lon="0.70164">
        <ele>147.7</ele>
        <time>2024-09-10T14:08:51+02:00</time>
      </trkpt>
      <trkpt lat="44.19081" lon="0.70146">
        <ele>147.6</ele>
        <time>2024-09-10T14:08:41+02:00</time>
      </trkpt>
      <trkpt lat="44.19081" lon="0.70133">
        <ele>148.1</ele>
        <time>2024-09-10T14:08:32+02:00</time>
      </trkpt>
      <trkpt lat="44.19082" lon="0.70119">
        <ele>149.2</ele>
        <time>2024-09-10T14:08:23+02:00</time>
      </trkpt>
      <trkpt lat="44.19082" lon="0.70103">
        <ele>149.3</ele>
        <time>2024-09-10T14:08:13+02:00</time>
      </trkpt>
      <trkpt lat="44.19079" lon="0.70087">
        <ele>148.4</ele>
        <time>2024-09-10T14:08:03+02:00</time>
      </trkpt>
      <trkpt lat="44.19078" lon="0.70071">
        <ele>148.2</ele>
        <time>2024-09-10T14:07:54+02:00</time>
      </trkpt>
      <trkpt lat="44.19075" lon="0.70056">
        <ele>147.2</ele>
        <time>2024-09-10T14:07:45+02:00</time>
      </trkpt>
      <trkpt lat="44.1907" lon="0.70044">
        <ele>146</ele>
        <time>2024-09-10T14:07:35+02:00</time>
      </trkpt>
      <trkpt lat="44.19068" lon="0.70032">
        <ele>145.3</ele>
        <time>2024-09-10T14:07:26+02:00</time>
      </trkpt>
      <trkpt lat="44.19067" lon="0.70015">
        <ele>146.5</ele>
        <time>2024-09-10T14:07:17+02:00</time>
      </trkpt>
      <trkpt lat="44.19066" lon="0.69999">
        <ele>148</ele>
        <time>2024-09-10T14:07:07+02:00</time>
      </trkpt>
      <trkpt lat="44.19062" lon="0.69988">
        <ele>148</ele>
        <time>2024-09-10T14:06:58+02:00</time>
      </trkpt>
      <trkpt lat="44.19056" lon="0.69978">
        <ele>147.7</ele>
        <time>2024-09-10T14:06:48+02:00</time>
      </trkpt>
      <trkpt lat="44.1905" lon="0.69967">
        <ele>146.7</ele>
        <time>2024-09-10T14:06:39+02:00</time>
      </trkpt>
      <trkpt lat="44.19045" lon="0.69957">
        <ele>146.4</ele>
        <time>2024-09-10T14:06:30+02:00</time>
      </trkpt>
      <trkpt lat="44.19034" lon="0.69947">
        <ele>146.5</ele>
        <time>2024-09-10T14:06:20+02:00</time>
      </trkpt>
      <trkpt lat="44.19024" lon="0.69943">
        <ele>145.9</ele>
        <time>2024-09-10T14:06:11+02:00</time>
      </trkpt>
      <trkpt lat="44.19013" lon="0.69941">
        <ele>145.4</ele>
        <time>2024-09-10T14:06:01+02:00</time>
      </trkpt>
      <trkpt lat="44.19002" lon="0.69939">
        <ele>144.9</ele>
        <time>2024-09-10T14:05:52+02:00</time>
      </trkpt>
      <trkpt lat="44.18993" lon="0.69938">
        <ele>145.4</ele>
        <time>2024-09-10T14:05:43+02:00</time>
      </trkpt>
      <trkpt lat="44.18982" lon="0.69938">
        <ele>146.1</ele>
        <time>2024-09-10T14:05:33+02:00</time>
      </trkpt>
      <trkpt lat="44.18972" lon="0.69935">
        <ele>147.1</ele>
        <time>2024-09-10T14:04:43+02:00</time>
      </trkpt>
      <trkpt lat="44.18963" lon="0.69934">
        <ele>147.5</ele>
        <time>2024-09-10T14:03:58+02:00</time>
      </trkpt>
      <trkpt lat="44.18955" lon="0.69942">
        <ele>147.3</ele>
        <time>2024-09-10T14:03:44+02:00</time>
      </trkpt>
      <trkpt lat="44.18947" lon="0.69956">
        <ele>145.9</ele>
        <time>2024-09-10T14:03:16+02:00</time>
      </trkpt>
      <trkpt lat="44.1894" lon="0.6997">
        <ele>143.7</ele>
        <time>2024-09-10T14:03:02+02:00</time>
      </trkpt>
      <trkpt lat="44.18933" lon="0.69977">
        <ele>141.1</ele>
        <time>2024-09-10T14:02:48+02:00</time>
      </trkpt>
      <trkpt lat="44.18924" lon="0.69985">
        <ele>138.7</ele>
        <time>2024-09-10T14:02:29+02:00</time>
      </trkpt>
      <trkpt lat="44.18914" lon="0.6999">
        <ele>137.2</ele>
        <time>2024-09-10T14:02:13+02:00</time>
      </trkpt>
      <trkpt lat="44.18906" lon="0.69999">
        <ele>134.4</ele>
        <time>2024-09-10T14:01:18+02:00</time>
      </trkpt>
      <trkpt lat="44.18896" lon="0.69997">
        <ele>131.9</ele>
        <time>2024-09-10T14:00:54+02:00</time>
      </trkpt>
      <trkpt lat="44.18888" lon="0.6999">
        <ele>129.5</ele>
        <time>2024-09-10T14:00:34+02:00</time>
      </trkpt>
      <trkpt lat="44.18879" lon="0.69987">
        <ele>126</ele>
        <time>2024-09-10T14:00:14+02:00</time>
      </trkpt>
      <trkpt lat="44.18871" lon="0.69978">
        <ele>122.7</ele>
        <time>2024-09-10T13:59:24+02:00</time>
      </trkpt>
      <trkpt lat="44.1886" lon="0.69968">
        <ele>118.5</ele>
        <time>2024-09-10T13:59:05+02:00</time>
      </trkpt>
      <trkpt lat="44.18852" lon="0.69962">
        <ele>115.4</ele>
        <time>2024-09-10T13:58:45+02:00</time>
      </trkpt>
      <trkpt lat="44.18841" lon="0.69963">
        <ele>112</ele>
        <time>2024-09-10T13:57:50+02:00</time>
      </trkpt>
      <trkpt lat="44.18835" lon="0.69977">
        <ele>110.5</ele>
        <time>2024-09-10T13:57:36+02:00</time>
      </trkpt>
      <trkpt lat="44.18824" lon="0.69982">
        <ele>107.1</ele>
        <time>2024-09-10T13:57:16+02:00</time>
      </trkpt>
      <trkpt lat="44.18815" lon="0.69979">
        <ele>104.3</ele>
        <time>2024-09-10T13:56:47+02:00</time>
      </trkpt>
      <trkpt lat="44.18804" lon="0.69977">
        <ele>100.7</ele>
        <time>2024-09-10T13:56:27+02:00</time>
      </trkpt>
      <trkpt lat="44.18795" lon="0.69975">
        <ele>98</ele>
        <time>2024-09-10T13:56:13+02:00</time>
      </trkpt>
      <trkpt lat="44.18784" lon="0.69974">
        <ele>94.8</ele>
        <time>2024-09-10T13:55:59+02:00</time>
      </trkpt>
      <trkpt lat="44.18775" lon="0.69973">
        <ele>92.2</ele>
        <time>2024-09-10T13:55:09+02:00</time>
      </trkpt>
      <trkpt lat="44.18765" lon="0.69978">
        <ele>90</ele>
        <time>2024-09-10T13:54:55+02:00</time>
      </trkpt>
      <trkpt lat="44.18753" lon="0.69978">
        <ele>87</ele>
        <time>2024-09-10T13:54:41+02:00</time>
      </trkpt>
      <trkpt lat="44.18744" lon="0.6998">
        <ele>85.2</ele>
        <time>2024-09-10T13:54:31+02:00</time>
      </trkpt>
      <trkpt lat="44.18735" lon="0.6998">
        <ele>83.6</ele>
        <time>2024-09-10T13:53:51+02:00</time>
      </trkpt>
      <trkpt lat="44.18726" lon="0.69978">
        <ele>81.9</ele>
        <time>2024-09-10T13:53:42+02:00</time>
      </trkpt>
      <trkpt lat="44.18712" lon="0.69981">
        <ele>79.8</ele>
        <time>2024-09-10T13:53:28+02:00</time>
      </trkpt>
      <trkpt lat="44.18703" lon="0.69981">
        <ele>78.3</ele>
        <time>2024-09-10T13:53:17+02:00</time>
      </trkpt>
      <trkpt lat="44.1869" lon="0.69983">
        <ele>76.2</ele>
        <time>2024-09-10T13:53:02+02:00</time>
      </trkpt>
      <trkpt lat="44.18679" lon="0.69984">
        <ele>74.3</ele>
        <time>2024-09-10T13:52:53+02:00</time>
      </trkpt>
      <trkpt lat="44.1867" lon="0.69985">
        <ele>72.6</ele>
        <time>2024-09-10T13:52:38+02:00</time>
      </trkpt>
      <trkpt lat="44.18672" lon="0.69963">
        <ele>72.9</ele>
        <time>2024-09-10T13:52:29+02:00</time>
      </trkpt>
      <trkpt lat="44.18674" lon="0.69949">
        <ele>73</ele>
        <time>2024-09-10T13:52:20+02:00</time>
      </trkpt>
      <trkpt lat="44.18667" lon="0.69938">
        <ele>71.9</ele>
        <time>2024-09-10T13:52:10+02:00</time>
      </trkpt>
      <trkpt lat="44.18656" lon="0.69937">
        <ele>70.6</ele>
        <time>2024-09-10T13:52:01+02:00</time>
      </trkpt>
      <trkpt lat="44.18645" lon="0.69932">
        <ele>69.2</ele>
        <time>2024-09-10T13:51:52+02:00</time>
      </trkpt>
      <trkpt lat="44.18632" lon="0.6993">
        <ele>67.9</ele>
        <time>2024-09-10T13:51:42+02:00</time>
      </trkpt>
      <trkpt lat="44.18623" lon="0.69923">
        <ele>66.9</ele>
        <time>2024-09-10T13:51:32+02:00</time>
      </trkpt>
      <trkpt lat="44.1861" lon="0.69923">
        <ele>65.9</ele>
        <time>2024-09-10T13:51:22+02:00</time>
      </trkpt>
      <trkpt lat="44.18594" lon="0.69921">
        <ele>65.4</ele>
        <time>2024-09-10T13:51:12+02:00</time>
      </trkpt>
      <trkpt lat="44.18585" lon="0.69921">
        <ele>65</ele>
        <time>2024-09-10T13:51:07+02:00</time>
      </trkpt>
      <trkpt lat="44.18577" lon="0.69914">
        <ele>64.8</ele>
        <time>2024-09-10T13:50:57+02:00</time>
      </trkpt>
      <trkpt lat="44.18567" lon="0.69913">
        <ele>64.3</ele>
        <time>2024-09-10T13:50:48+02:00</time>
      </trkpt>
      <trkpt lat="44.18554" lon="0.6991">
        <ele>63.7</ele>
        <time>2024-09-10T13:50:37+02:00</time>
      </trkpt>
      <trkpt lat="44.18544" lon="0.69908">
        <ele>63.4</ele>
        <time>2024-09-10T13:50:27+02:00</time>
      </trkpt>
      <trkpt lat="44.18531" lon="0.69903">
        <ele>63.1</ele>
        <time>2024-09-10T13:50:18+02:00</time>
      </trkpt>
      <trkpt lat="44.18519" lon="0.69896">
        <ele>63</ele>
        <time>2024-09-10T13:50:08+02:00</time>
      </trkpt>
      <trkpt lat="44.18504" lon="0.69896">
        <ele>63</ele>
        <time>2024-09-10T13:49:58+02:00</time>
      </trkpt>
      <trkpt lat="44.18492" lon="0.69898">
        <ele>63</ele>
        <time>2024-09-10T13:49:49+02:00</time>
      </trkpt>
      <trkpt lat="44.18478" lon="0.69893">
        <ele>63</ele>
        <time>2024-09-10T13:49:39+02:00</time>
      </trkpt>
      <trkpt lat="44.18468" lon="0.69885">
        <ele>63</ele>
        <time>2024-09-10T13:49:29+02:00</time>
      </trkpt>
      <trkpt lat="44.18457" lon="0.69877">
        <ele>62.8</ele>
        <time>2024-09-10T13:49:20+02:00</time>
      </trkpt>
      <trkpt lat="44.18446" lon="0.69876">
        <ele>62.6</ele>
        <time>2024-09-10T13:49:09+02:00</time>
      </trkpt>
      <trkpt lat="44.18434" lon="0.69871">
        <ele>62.2</ele>
        <time>2024-09-10T13:49:00+02:00</time>
      </trkpt>
      <trkpt lat="44.18423" lon="0.69867">
        <ele>62</ele>
        <time>2024-09-10T13:48:50+02:00</time>
      </trkpt>
      <trkpt lat="44.18411" lon="0.69866">
        <ele>62</ele>
        <time>2024-09-10T13:48:40+02:00</time>
      </trkpt>
      <trkpt lat="44.18398" lon="0.69861">
        <ele>62</ele>
        <time>2024-09-10T13:48:30+02:00</time>
      </trkpt>
      <trkpt lat="44.18386" lon="0.69858">
        <ele>62</ele>
        <time>2024-09-10T13:48:21+02:00</time>
      </trkpt>
      <trkpt lat="44.18374" lon="0.69855">
        <ele>62</ele>
        <time>2024-09-10T13:48:11+02:00</time>
      </trkpt>
      <trkpt lat="44.1836" lon="0.6985">
        <ele>62</ele>
        <time>2024-09-10T13:48:02+02:00</time>
      </trkpt>
      <trkpt lat="44.18347" lon="0.6985">
        <ele>61.7</ele>
        <time>2024-09-10T13:47:52+02:00</time>
      </trkpt>
      <trkpt lat="44.18335" lon="0.69847">
        <ele>61.5</ele>
        <time>2024-09-10T13:47:42+02:00</time>
      </trkpt>
      <trkpt lat="44.18322" lon="0.69844">
        <ele>61.6</ele>
        <time>2024-09-10T13:47:33+02:00</time>
      </trkpt>
      <trkpt lat="44.1831" lon="0.69841">
        <ele>61.7</ele>
        <time>2024-09-10T13:47:24+02:00</time>
      </trkpt>
      <trkpt lat="44.18297" lon="0.69837">
        <ele>61.6</ele>
        <time>2024-09-10T13:47:14+02:00</time>
      </trkpt>
      <trkpt lat="44.18285" lon="0.69833">
        <ele>61.3</ele>
        <time>2024-09-10T13:47:05+02:00</time>
      </trkpt>
      <trkpt lat="44.18273" lon="0.69831">
        <ele>60.8</ele>
        <time>2024-09-10T13:46:55+02:00</time>
      </trkpt>
      <trkpt lat="44.18259" lon="0.69827">
        <ele>60.3</ele>
        <time>2024-09-10T13:46:45+02:00</time>
      </trkpt>
      <trkpt lat="44.18245" lon="0.69824">
        <ele>59.9</ele>
        <time>2024-09-10T13:46:36+02:00</time>
      </trkpt>
      <trkpt lat="44.18234" lon="0.69823">
        <ele>59.8</ele>
        <time>2024-09-10T13:46:26+02:00</time>
      </trkpt>
      <trkpt lat="44.18222" lon="0.69817">
        <ele>59.4</ele>
        <time>2024-09-10T13:46:17+02:00</time>
      </trkpt>
      <trkpt lat="44.1821" lon="0.69813">
        <ele>59.2</ele>
        <time>2024-09-10T13:46:07+02:00</time>
      </trkpt>
      <trkpt lat="44.18197" lon="0.6981">
        <ele>59</ele>
        <time>2024-09-10T13:45:58+02:00</time>
      </trkpt>
      <trkpt lat="44.18184" lon="0.69808">
        <ele>59</ele>
        <time>2024-09-10T13:45:48+02:00</time>
      </trkpt>
      <trkpt lat="44.18173" lon="0.69808">
        <ele>59</ele>
        <time>2024-09-10T13:45:39+02:00</time>
      </trkpt>
      <trkpt lat="44.1816" lon="0.69806">
        <ele>59</ele>
        <time>2024-09-10T13:45:30+02:00</time>
      </trkpt>
      <trkpt lat="44.1815" lon="0.69802">
        <ele>58.9</ele>
        <time>2024-09-10T13:45:25+02:00</time>
      </trkpt>
      <trkpt lat="44.18151" lon="0.69786">
        <ele>58.3</ele>
        <time>2024-09-10T13:45:15+02:00</time>
      </trkpt>
      <trkpt lat="44.18142" lon="0.69774">
        <ele>58</ele>
        <time>2024-09-10T13:45:06+02:00</time>
      </trkpt>
      <trkpt lat="44.18133" lon="0.69762">
        <ele>58</ele>
        <time>2024-09-10T13:44:56+02:00</time>
      </trkpt>
      <trkpt lat="44.18123" lon="0.69751">
        <ele>58</ele>
        <time>2024-09-10T13:44:47+02:00</time>
      </trkpt>
      <trkpt lat="44.18114" lon="0.69738">
        <ele>58</ele>
        <time>2024-09-10T13:44:37+02:00</time>
      </trkpt>
      <trkpt lat="44.18103" lon="0.69729">
        <ele>58</ele>
        <time>2024-09-10T13:44:28+02:00</time>
      </trkpt>
      <trkpt lat="44.18092" lon="0.69718">
        <ele>58</ele>
        <time>2024-09-10T13:44:18+02:00</time>
      </trkpt>
      <trkpt lat="44.18083" lon="0.69707">
        <ele>58</ele>
        <time>2024-09-10T13:44:09+02:00</time>
      </trkpt>
      <trkpt lat="44.18072" lon="0.69694">
        <ele>58</ele>
        <time>2024-09-10T13:44:00+02:00</time>
      </trkpt>
      <trkpt lat="44.18062" lon="0.69683">
        <ele>58</ele>
        <time>2024-09-10T13:43:50+02:00</time>
      </trkpt>
      <trkpt lat="44.18052" lon="0.69673">
        <ele>57.9</ele>
        <time>2024-09-10T13:43:40+02:00</time>
      </trkpt>
      <trkpt lat="44.18043" lon="0.69663">
        <ele>57.5</ele>
        <time>2024-09-10T13:43:31+02:00</time>
      </trkpt>
      <trkpt lat="44.1803" lon="0.69652">
        <ele>57.1</ele>
        <time>2024-09-10T13:43:22+02:00</time>
      </trkpt>
      <trkpt lat="44.18018" lon="0.69644">
        <ele>57</ele>
        <time>2024-09-10T13:43:12+02:00</time>
      </trkpt>
      <trkpt lat="44.18008" lon="0.69635">
        <ele>57</ele>
        <time>2024-09-10T13:43:03+02:00</time>
      </trkpt>
      <trkpt lat="44.17999" lon="0.69628">
        <ele>57</ele>
        <time>2024-09-10T13:42:53+02:00</time>
      </trkpt>
      <trkpt lat="44.17985" lon="0.69623">
        <ele>57</ele>
        <time>2024-09-10T13:42:44+02:00</time>
      </trkpt>
      <trkpt lat="44.17974" lon="0.69615">
        <ele>57</ele>
        <time>2024-09-10T13:42:34+02:00</time>
      </trkpt>
      <trkpt lat="44.17962" lon="0.69611">
        <ele>57</ele>
        <time>2024-09-10T13:42:24+02:00</time>
      </trkpt>
      <trkpt lat="44.17949" lon="0.69605">
        <ele>57</ele>
        <time>2024-09-10T13:42:15+02:00</time>
      </trkpt>
      <trkpt lat="44.17937" lon="0.69602">
        <ele>57</ele>
        <time>2024-09-10T13:42:05+02:00</time>
      </trkpt>
      <trkpt lat="44.17925" lon="0.69595">
        <ele>57</ele>
        <time>2024-09-10T13:41:56+02:00</time>
      </trkpt>
      <trkpt lat="44.17911" lon="0.6959">
        <ele>56.9</ele>
        <time>2024-09-10T13:41:46+02:00</time>
      </trkpt>
      <trkpt lat="44.17899" lon="0.69586">
        <ele>56.4</ele>
        <time>2024-09-10T13:41:37+02:00</time>
      </trkpt>
      <trkpt lat="44.17886" lon="0.69585">
        <ele>56.1</ele>
        <time>2024-09-10T13:41:27+02:00</time>
      </trkpt>
      <trkpt lat="44.17872" lon="0.6958">
        <ele>56.1</ele>
        <time>2024-09-10T13:41:18+02:00</time>
      </trkpt>
      <trkpt lat="44.17861" lon="0.69576">
        <ele>56.3</ele>
        <time>2024-09-10T13:41:08+02:00</time>
      </trkpt>
      <trkpt lat="44.17848" lon="0.69572">
        <ele>56.5</ele>
        <time>2024-09-10T13:40:59+02:00</time>
      </trkpt>
      <trkpt lat="44.17836" lon="0.69567">
        <ele>56.4</ele>
        <time>2024-09-10T13:40:49+02:00</time>
      </trkpt>
      <trkpt lat="44.17822" lon="0.69565">
        <ele>56.2</ele>
        <time>2024-09-10T13:40:40+02:00</time>
      </trkpt>
      <trkpt lat="44.17811" lon="0.6956">
        <ele>56</ele>
        <time>2024-09-10T13:40:30+02:00</time>
      </trkpt>
      <trkpt lat="44.178" lon="0.69554">
        <ele>56</ele>
        <time>2024-09-10T13:40:21+02:00</time>
      </trkpt>
      <trkpt lat="44.17788" lon="0.69547">
        <ele>56</ele>
        <time>2024-09-10T13:40:11+02:00</time>
      </trkpt>
      <trkpt lat="44.17779" lon="0.69534">
        <ele>56</ele>
        <time>2024-09-10T13:40:02+02:00</time>
      </trkpt>
      <trkpt lat="44.17769" lon="0.69524">
        <ele>56.4</ele>
        <time>2024-09-10T13:39:52+02:00</time>
      </trkpt>
      <trkpt lat="44.1776" lon="0.6951">
        <ele>56.9</ele>
        <time>2024-09-10T13:39:43+02:00</time>
      </trkpt>
      <trkpt lat="44.1775" lon="0.69496">
        <ele>57</ele>
        <time>2024-09-10T13:39:34+02:00</time>
      </trkpt>
      <trkpt lat="44.17741" lon="0.69485">
        <ele>57</ele>
        <time>2024-09-10T13:39:24+02:00</time>
      </trkpt>
      <trkpt lat="44.17733" lon="0.6947">
        <ele>57</ele>
        <time>2024-09-10T13:39:15+02:00</time>
      </trkpt>
      <trkpt lat="44.17723" lon="0.6947">
        <ele>57</ele>
        <time>2024-09-10T13:39:06+02:00</time>
      </trkpt>
      <trkpt lat="44.17713" lon="0.69462">
        <ele>57</ele>
        <time>2024-09-10T13:38:56+02:00</time>
      </trkpt>
      <trkpt lat="44.17708" lon="0.69451">
        <ele>57</ele>
        <time>2024-09-10T13:38:46+02:00</time>
      </trkpt>
      <trkpt lat="44.17701" lon="0.69445">
        <ele>57</ele>
        <time>2024-09-10T13:38:36+02:00</time>
      </trkpt>
      <trkpt lat="44.17693" lon="0.69431">
        <ele>57.5</ele>
        <time>2024-09-10T13:38:27+02:00</time>
      </trkpt>
      <trkpt lat="44.17682" lon="0.69414">
        <ele>57.5</ele>
        <time>2024-09-10T13:38:16+02:00</time>
      </trkpt>
      <trkpt lat="44.17672" lon="0.69398">
        <ele>57.2</ele>
        <time>2024-09-10T13:37:51+02:00</time>
      </trkpt>
    </trkseg>
  </trk>
</gpx>